UAE201 OMDB-KJFK
Flight info
| Callsign | UAE201 |
|---|---|
| Flight time | N/A |
| Altitude | 30000 |
| Route | SENP2F SENPA N571 ALPOB L768 VATIM L550 NOVPA N697 MENLI L677 CVO L617 NABSI M872 METRU ARLOS DOBIX SONAK MORJA UA411 BNA UZ444 DAHRA UA411 MOS UM744 CARBO GOLFO OBAKA UMUKA MGA MAR SVL M744 LASIB GUNTI 40N020W 41N030W 4230N04000W 44N050W BOBTU JAROM LOMPI KANNI PLYMM PARCH4 |
| Aircraft | B77W/H-VGDW/C |
Departure
| Time | N/A |
|---|---|
| Airport | Dubai International Airport (OMDB) |
Arrival
| Time | 2026-05-06 13:17 |
|---|---|
| Airport | John F. Kennedy International Airport (KJFK) |
| Time | Latitude | Longitude | Altitude | Speed | Heading |
|---|---|---|---|---|---|
| 2026-05-06 02:06 | 29.59516 | 32.72586 | 32064 ft | 462 kts | 277° |
| 2026-05-06 02:07 | 29.60506 | 32.65312 | 32067 ft | 464 kts | 283° |
| 2026-05-06 02:07 | 29.62215 | 32.58166 | 32065 ft | 463 kts | 284° |
| 2026-05-06 02:08 | 29.63903 | 32.51033 | 32065 ft | 465 kts | 284° |
| 2026-05-06 02:08 | 29.65551 | 32.43904 | 32066 ft | 463 kts | 284° |
| 2026-05-06 02:09 | 29.67191 | 32.36718 | 32071 ft | 462 kts | 284° |
| 2026-05-06 02:09 | 29.68807 | 32.29578 | 32081 ft | 465 kts | 283° |
| 2026-05-06 02:10 | 29.70414 | 32.22437 | 32083 ft | 463 kts | 283° |
| 2026-05-06 02:10 | 29.72028 | 32.15235 | 32083 ft | 464 kts | 283° |
| 2026-05-06 02:11 | 29.73632 | 32.08050 | 32086 ft | 464 kts | 283° |
| 2026-05-06 02:11 | 29.75227 | 32.00883 | 32082 ft | 463 kts | 283° |
| 2026-05-06 02:12 | 29.76812 | 31.93745 | 32078 ft | 463 kts | 283° |
| 2026-05-06 02:12 | 29.78889 | 31.86706 | 32086 ft | 468 kts | 295° |
| 2026-05-06 02:13 | 29.82460 | 31.80442 | 32087 ft | 469 kts | 304° |
| 2026-05-06 02:13 | 29.86346 | 31.74439 | 32078 ft | 469 kts | 304° |
| 2026-05-06 02:14 | 29.90249 | 31.68399 | 32078 ft | 469 kts | 304° |
| 2026-05-06 02:14 | 29.94152 | 31.62345 | 32078 ft | 469 kts | 304° |
| 2026-05-06 02:15 | 29.98053 | 31.56283 | 32081 ft | 470 kts | 304° |
| 2026-05-06 02:15 | 30.01413 | 31.51053 | 32076 ft | 469 kts | 304° |
| 2026-05-06 02:16 | 30.05313 | 31.44973 | 32080 ft | 470 kts | 304° |
| 2026-05-06 02:16 | 30.09271 | 31.38984 | 32084 ft | 471 kts | 309° |
| 2026-05-06 02:17 | 30.14032 | 31.33685 | 32090 ft | 473 kts | 314° |
| 2026-05-06 02:17 | 30.18875 | 31.28496 | 32091 ft | 473 kts | 314° |
| 2026-05-06 02:18 | 30.23673 | 31.23344 | 32090 ft | 473 kts | 314° |
| 2026-05-06 02:18 | 30.28514 | 31.18136 | 32093 ft | 474 kts | 314° |
| 2026-05-06 02:19 | 30.33331 | 31.12945 | 32085 ft | 472 kts | 314° |
| 2026-05-06 02:19 | 30.38129 | 31.07767 | 32078 ft | 472 kts | 314° |
| 2026-05-06 02:20 | 30.45314 | 30.99997 | 32090 ft | 472 kts | 314° |
| 2026-05-06 02:21 | 30.50120 | 30.94791 | 32081 ft | 471 kts | 314° |
| 2026-05-06 02:21 | 30.54917 | 30.89587 | 32085 ft | 471 kts | 314° |
| 2026-05-06 02:22 | 30.59683 | 30.84409 | 32085 ft | 469 kts | 314° |
| 2026-05-06 02:22 | 30.64415 | 30.79261 | 32074 ft | 469 kts | 314° |
| 2026-05-06 02:23 | 30.69208 | 30.74038 | 32073 ft | 470 kts | 314° |
| 2026-05-06 02:23 | 30.73941 | 30.68876 | 32070 ft | 468 kts | 314° |
| 2026-05-06 02:24 | 30.78694 | 30.63682 | 32070 ft | 468 kts | 314° |
| 2026-05-06 02:24 | 30.83423 | 30.58507 | 32068 ft | 468 kts | 314° |
| 2026-05-06 02:25 | 30.88178 | 30.53297 | 32071 ft | 468 kts | 314° |
| 2026-05-06 02:25 | 30.92893 | 30.48125 | 32062 ft | 466 kts | 314° |
| 2026-05-06 02:26 | 30.97596 | 30.42957 | 32060 ft | 467 kts | 314° |
| 2026-05-06 02:26 | 31.02307 | 30.37772 | 32064 ft | 466 kts | 314° |
| 2026-05-06 02:27 | 31.06856 | 30.32448 | 32063 ft | 463 kts | 307° |
| 2026-05-06 02:27 | 31.10168 | 30.26079 | 32060 ft | 459 kts | 292° |
| 2026-05-06 02:28 | 31.12244 | 30.19012 | 32073 ft | 460 kts | 288° |
| 2026-05-06 02:28 | 31.14177 | 30.11954 | 32075 ft | 459 kts | 288° |
| 2026-05-06 02:29 | 31.16117 | 30.04842 | 32074 ft | 460 kts | 288° |
| 2026-05-06 02:29 | 31.18089 | 29.97744 | 32069 ft | 459 kts | 291° |
| 2026-05-06 02:30 | 31.21160 | 29.91252 | 32077 ft | 462 kts | 304° |
| 2026-05-06 02:30 | 31.24932 | 29.85174 | 32068 ft | 460 kts | 305° |
| 2026-05-06 02:31 | 31.28688 | 29.79135 | 32069 ft | 461 kts | 305° |
| 2026-05-06 02:31 | 31.32447 | 29.73081 | 32069 ft | 462 kts | 305° |
| 2026-05-06 02:32 | 31.36224 | 29.66985 | 32066 ft | 461 kts | 305° |
| 2026-05-06 02:32 | 31.39977 | 29.60918 | 32069 ft | 461 kts | 305° |
| 2026-05-06 02:33 | 31.43725 | 29.54850 | 32066 ft | 460 kts | 305° |
| 2026-05-06 02:33 | 31.44975 | 29.52825 | 32064 ft | 461 kts | 305° |
| 2026-05-06 02:34 | 31.51204 | 29.42713 | 32067 ft | 461 kts | 305° |
| 2026-05-06 02:34 | 31.54953 | 29.36613 | 32068 ft | 461 kts | 305° |
| 2026-05-06 02:35 | 31.58695 | 29.30516 | 32076 ft | 462 kts | 304° |
| 2026-05-06 02:35 | 31.62417 | 29.24444 | 32071 ft | 462 kts | 305° |
| 2026-05-06 02:36 | 31.66172 | 29.18306 | 32068 ft | 461 kts | 305° |
| 2026-05-06 02:36 | 31.69901 | 29.12200 | 32068 ft | 462 kts | 305° |
| 2026-05-06 02:37 | 31.73635 | 29.06079 | 32067 ft | 462 kts | 305° |
| 2026-05-06 02:37 | 31.77379 | 28.99931 | 32076 ft | 462 kts | 305° |
| 2026-05-06 02:38 | 31.81089 | 28.93827 | 32069 ft | 462 kts | 305° |
| 2026-05-06 02:38 | 31.84810 | 28.87696 | 32077 ft | 462 kts | 305° |
| 2026-05-06 02:39 | 31.88538 | 28.81545 | 32070 ft | 460 kts | 305° |
| 2026-05-06 02:39 | 31.92247 | 28.75415 | 32060 ft | 461 kts | 305° |
| 2026-05-06 02:40 | 31.95962 | 28.69264 | 32073 ft | 462 kts | 305° |
| 2026-05-06 02:40 | 31.99688 | 28.63087 | 32072 ft | 462 kts | 305° |
| 2026-05-06 02:41 | 32.03389 | 28.56940 | 32061 ft | 462 kts | 305° |
| 2026-05-06 02:41 | 32.07101 | 28.50765 | 32060 ft | 461 kts | 306° |
| 2026-05-06 02:42 | 32.10808 | 28.44589 | 32070 ft | 463 kts | 305° |
| 2026-05-06 02:42 | 32.14505 | 28.38419 | 32066 ft | 462 kts | 305° |
| 2026-05-06 02:43 | 32.18205 | 28.32235 | 32070 ft | 462 kts | 305° |
| 2026-05-06 02:43 | 32.21922 | 28.26011 | 32069 ft | 463 kts | 305° |
| 2026-05-06 02:44 | 32.25599 | 28.19845 | 32076 ft | 462 kts | 305° |
| 2026-05-06 02:44 | 32.29286 | 28.13651 | 32070 ft | 461 kts | 305° |
| 2026-05-06 02:45 | 32.32969 | 28.07455 | 32067 ft | 461 kts | 305° |
| 2026-05-06 02:45 | 32.36641 | 28.01267 | 32067 ft | 462 kts | 305° |
| 2026-05-06 02:46 | 32.40314 | 27.95066 | 32060 ft | 461 kts | 305° |
| 2026-05-06 02:46 | 32.43980 | 27.88867 | 32066 ft | 461 kts | 305° |
| 2026-05-06 02:47 | 32.47651 | 27.82651 | 32052 ft | 462 kts | 305° |
| 2026-05-06 02:47 | 32.51345 | 27.76384 | 32060 ft | 464 kts | 305° |
| 2026-05-06 02:48 | 32.55024 | 27.70133 | 32062 ft | 464 kts | 305° |
| 2026-05-06 02:48 | 32.58683 | 27.63906 | 32046 ft | 463 kts | 305° |
| 2026-05-06 02:49 | 32.62360 | 27.57636 | 32060 ft | 463 kts | 305° |
| 2026-05-06 02:49 | 32.66038 | 27.51356 | 32064 ft | 465 kts | 305° |
| 2026-05-06 02:50 | 32.69696 | 27.45097 | 32060 ft | 465 kts | 305° |
| 2026-05-06 02:50 | 32.73404 | 27.38745 | 32064 ft | 466 kts | 305° |
| 2026-05-06 02:51 | 32.77066 | 27.32460 | 32068 ft | 465 kts | 304° |
| 2026-05-06 02:51 | 32.80728 | 27.26163 | 32077 ft | 465 kts | 304° |
| 2026-05-06 02:52 | 32.84405 | 27.19832 | 32069 ft | 465 kts | 304° |
| 2026-05-06 02:52 | 32.88071 | 27.13508 | 32069 ft | 465 kts | 304° |
| 2026-05-06 02:53 | 32.91741 | 27.07166 | 32065 ft | 466 kts | 304° |
| 2026-05-06 02:53 | 32.95396 | 27.00839 | 32063 ft | 465 kts | 304° |
| 2026-05-06 02:54 | 32.99068 | 26.94472 | 32061 ft | 466 kts | 304° |
| 2026-05-06 02:54 | 33.02741 | 26.88094 | 32065 ft | 466 kts | 304° |
| 2026-05-06 02:55 | 33.06396 | 26.81735 | 32065 ft | 466 kts | 304° |
| 2026-05-06 02:55 | 33.10026 | 26.75408 | 32060 ft | 465 kts | 304° |
| 2026-05-06 02:56 | 33.13679 | 26.69031 | 32065 ft | 465 kts | 304° |
| 2026-05-06 02:56 | 33.17322 | 26.62659 | 32067 ft | 466 kts | 304° |
| 2026-05-06 02:57 | 33.20951 | 26.56303 | 32062 ft | 465 kts | 304° |
| 2026-05-06 02:57 | 33.24577 | 26.49939 | 32060 ft | 466 kts | 304° |
| 2026-05-06 02:58 | 33.28225 | 26.43527 | 32058 ft | 466 kts | 304° |
| 2026-05-06 02:58 | 33.31844 | 26.37154 | 32058 ft | 466 kts | 304° |
| 2026-05-06 02:59 | 33.35472 | 26.30755 | 32067 ft | 465 kts | 304° |
| 2026-05-06 02:59 | 33.39090 | 26.24361 | 32065 ft | 465 kts | 304° |
| 2026-05-06 03:00 | 33.42717 | 26.17941 | 32063 ft | 465 kts | 304° |
| 2026-05-06 03:00 | 33.46313 | 26.11565 | 32061 ft | 465 kts | 303° |
| 2026-05-06 03:01 | 33.49929 | 26.05141 | 32058 ft | 466 kts | 303° |
| 2026-05-06 03:01 | 33.53529 | 25.98736 | 32058 ft | 466 kts | 303° |
| 2026-05-06 03:02 | 33.57147 | 25.92287 | 32057 ft | 466 kts | 304° |
| 2026-05-06 03:02 | 33.60748 | 25.85856 | 32060 ft | 466 kts | 304° |
| 2026-05-06 03:03 | 33.64351 | 25.79412 | 32068 ft | 465 kts | 303° |
| 2026-05-06 03:03 | 33.67965 | 25.72935 | 32070 ft | 466 kts | 303° |
| 2026-05-06 03:04 | 33.71548 | 25.66503 | 32067 ft | 465 kts | 303° |
| 2026-05-06 03:04 | 33.75129 | 25.60064 | 32066 ft | 466 kts | 303° |
| 2026-05-06 03:05 | 33.78718 | 25.53597 | 32067 ft | 466 kts | 303° |
| 2026-05-06 03:05 | 33.82320 | 25.47097 | 32062 ft | 465 kts | 303° |
| 2026-05-06 03:06 | 33.85900 | 25.40625 | 32066 ft | 466 kts | 303° |
| 2026-05-06 03:06 | 33.89458 | 25.34179 | 32067 ft | 465 kts | 303° |
| 2026-05-06 03:07 | 33.93040 | 25.27681 | 32068 ft | 465 kts | 303° |
| 2026-05-06 03:07 | 33.96609 | 25.21193 | 32075 ft | 465 kts | 303° |
| 2026-05-06 03:08 | 33.99936 | 25.14543 | 32059 ft | 465 kts | 295° |
| 2026-05-06 03:08 | 34.02256 | 25.07321 | 32067 ft | 466 kts | 291° |
| 2026-05-06 03:09 | 34.04501 | 24.99959 | 32067 ft | 467 kts | 291° |
| 2026-05-06 03:09 | 34.06713 | 24.92638 | 32063 ft | 467 kts | 291° |
| 2026-05-06 03:10 | 34.08919 | 24.85290 | 32072 ft | 468 kts | 291° |
| 2026-05-06 03:10 | 34.11120 | 24.77931 | 32074 ft | 468 kts | 291° |
| 2026-05-06 03:11 | 34.13324 | 24.70534 | 32070 ft | 467 kts | 291° |
| 2026-05-06 03:11 | 34.15499 | 24.63210 | 32075 ft | 468 kts | 291° |
| 2026-05-06 03:12 | 34.17691 | 24.55809 | 32074 ft | 467 kts | 291° |
| 2026-05-06 03:12 | 34.19859 | 24.48470 | 32072 ft | 467 kts | 291° |
| 2026-05-06 03:13 | 34.22039 | 24.41069 | 32075 ft | 469 kts | 291° |
| 2026-05-06 03:13 | 34.24218 | 24.33654 | 32078 ft | 469 kts | 291° |
| 2026-05-06 03:14 | 34.26388 | 24.26253 | 32081 ft | 469 kts | 290° |
| 2026-05-06 03:14 | 34.28562 | 24.18816 | 32081 ft | 469 kts | 290° |
| 2026-05-06 03:15 | 34.30716 | 24.11426 | 32082 ft | 469 kts | 291° |
| 2026-05-06 03:15 | 34.32882 | 24.03981 | 32085 ft | 470 kts | 291° |
| 2026-05-06 03:16 | 34.35041 | 23.96535 | 32079 ft | 469 kts | 291° |
| 2026-05-06 03:16 | 34.37199 | 23.89079 | 32082 ft | 470 kts | 291° |
| 2026-05-06 03:17 | 34.39341 | 23.81655 | 32079 ft | 471 kts | 291° |
| 2026-05-06 03:17 | 34.41498 | 23.74162 | 32072 ft | 471 kts | 291° |
| 2026-05-06 03:18 | 34.43647 | 23.66673 | 32083 ft | 472 kts | 291° |
| 2026-05-06 03:18 | 34.45798 | 23.59163 | 32077 ft | 472 kts | 291° |
| 2026-05-06 03:19 | 34.47937 | 23.51670 | 32083 ft | 474 kts | 291° |
| 2026-05-06 03:19 | 34.50087 | 23.44119 | 32083 ft | 474 kts | 291° |
| 2026-05-06 03:20 | 34.53291 | 23.32834 | 32086 ft | 474 kts | 291° |
| 2026-05-06 03:20 | 34.55428 | 23.25278 | 32084 ft | 473 kts | 290° |
| 2026-05-06 03:21 | 34.57552 | 23.17750 | 32086 ft | 475 kts | 290° |
| 2026-05-06 03:21 | 34.59679 | 23.10189 | 32085 ft | 474 kts | 290° |
| 2026-05-06 03:22 | 34.61803 | 23.02620 | 32086 ft | 477 kts | 291° |
| 2026-05-06 03:22 | 34.63761 | 22.94940 | 32089 ft | 478 kts | 287° |
| 2026-05-06 03:23 | 34.65432 | 22.87186 | 32087 ft | 478 kts | 287° |
| 2026-05-06 03:23 | 34.67128 | 22.79368 | 32086 ft | 478 kts | 287° |
| 2026-05-06 03:24 | 34.68819 | 22.71608 | 32086 ft | 478 kts | 287° |
| 2026-05-06 03:24 | 34.70512 | 22.63848 | 32085 ft | 477 kts | 287° |
| 2026-05-06 03:25 | 34.72212 | 22.56040 | 32082 ft | 478 kts | 287° |
| 2026-05-06 03:25 | 34.73906 | 22.48244 | 32087 ft | 479 kts | 287° |
| 2026-05-06 03:26 | 34.75608 | 22.40388 | 32086 ft | 481 kts | 287° |
| 2026-05-06 03:26 | 34.77299 | 22.32562 | 32089 ft | 481 kts | 286° |
| 2026-05-06 03:27 | 34.78982 | 22.24746 | 32089 ft | 481 kts | 286° |
| 2026-05-06 03:27 | 34.80667 | 22.16893 | 32087 ft | 480 kts | 287° |
| 2026-05-06 03:28 | 34.82344 | 22.09054 | 32087 ft | 482 kts | 286° |
| 2026-05-06 03:28 | 34.84017 | 22.01206 | 32088 ft | 481 kts | 286° |
| 2026-05-06 03:29 | 34.85695 | 21.93308 | 32088 ft | 482 kts | 286° |
| 2026-05-06 03:29 | 34.87360 | 21.85449 | 32088 ft | 483 kts | 286° |
| 2026-05-06 03:30 | 34.89026 | 21.77552 | 32089 ft | 484 kts | 286° |
| 2026-05-06 03:30 | 34.90694 | 21.69617 | 32085 ft | 482 kts | 286° |
| 2026-05-06 03:31 | 34.92340 | 21.61763 | 32089 ft | 482 kts | 286° |
| 2026-05-06 03:31 | 34.93988 | 21.53867 | 32084 ft | 483 kts | 286° |
| 2026-05-06 03:32 | 34.95634 | 21.45956 | 32085 ft | 482 kts | 286° |
| 2026-05-06 03:32 | 34.97281 | 21.38018 | 32087 ft | 483 kts | 286° |
| 2026-05-06 03:33 | 34.98919 | 21.30087 | 32089 ft | 484 kts | 285° |
| 2026-05-06 03:33 | 35.00542 | 21.22202 | 32090 ft | 484 kts | 285° |
| 2026-05-06 03:34 | 35.02172 | 21.14259 | 32088 ft | 484 kts | 285° |
| 2026-05-06 03:34 | 35.03803 | 21.06279 | 32089 ft | 484 kts | 285° |
| 2026-05-06 03:35 | 35.05417 | 20.98354 | 32084 ft | 484 kts | 285° |
| 2026-05-06 03:35 | 35.07027 | 20.90421 | 32085 ft | 484 kts | 285° |
| 2026-05-06 03:36 | 35.08637 | 20.82462 | 32088 ft | 484 kts | 285° |
| 2026-05-06 03:36 | 35.10247 | 20.74470 | 32085 ft | 485 kts | 285° |
| 2026-05-06 03:37 | 35.11853 | 20.66466 | 32086 ft | 485 kts | 285° |
| 2026-05-06 03:37 | 35.13440 | 20.58535 | 32087 ft | 485 kts | 285° |
| 2026-05-06 03:38 | 35.15037 | 20.50519 | 32089 ft | 485 kts | 285° |
| 2026-05-06 03:38 | 35.16620 | 20.42549 | 32085 ft | 485 kts | 285° |
| 2026-05-06 03:39 | 35.18199 | 20.34564 | 32088 ft | 485 kts | 284° |
| 2026-05-06 03:39 | 35.19779 | 20.26547 | 32094 ft | 486 kts | 284° |
| 2026-05-06 03:40 | 35.21350 | 20.18547 | 32095 ft | 487 kts | 284° |
| 2026-05-06 03:40 | 35.22926 | 20.10492 | 32092 ft | 487 kts | 284° |
| 2026-05-06 03:41 | 35.24491 | 20.02460 | 32087 ft | 488 kts | 284° |
| 2026-05-06 03:41 | 35.26051 | 19.94426 | 32093 ft | 487 kts | 284° |
| 2026-05-06 03:42 | 35.27609 | 19.86367 | 32089 ft | 487 kts | 284° |
| 2026-05-06 03:42 | 35.29156 | 19.78336 | 32091 ft | 487 kts | 284° |
| 2026-05-06 03:43 | 35.30696 | 19.70317 | 32090 ft | 488 kts | 284° |
| 2026-05-06 03:43 | 35.32240 | 19.62241 | 32088 ft | 488 kts | 284° |
| 2026-05-06 03:44 | 35.33776 | 19.54172 | 32092 ft | 489 kts | 284° |
| 2026-05-06 03:44 | 35.35310 | 19.46091 | 32091 ft | 489 kts | 284° |
| 2026-05-06 03:45 | 35.36843 | 19.37976 | 32088 ft | 488 kts | 284° |
| 2026-05-06 03:45 | 35.38358 | 19.29929 | 32093 ft | 489 kts | 283° |
| 2026-05-06 03:46 | 35.39878 | 19.21824 | 32090 ft | 489 kts | 283° |
| 2026-05-06 03:46 | 35.41390 | 19.13727 | 32092 ft | 490 kts | 283° |
| 2026-05-06 03:47 | 35.42901 | 19.05603 | 32089 ft | 492 kts | 283° |
| 2026-05-06 03:47 | 35.44418 | 18.97419 | 32078 ft | 492 kts | 283° |
| 2026-05-06 03:48 | 35.45921 | 18.89272 | 32084 ft | 491 kts | 283° |
| 2026-05-06 03:48 | 35.47411 | 18.81163 | 32077 ft | 491 kts | 283° |
| 2026-05-06 03:49 | 35.48908 | 18.72989 | 32083 ft | 491 kts | 283° |
| 2026-05-06 03:49 | 35.50394 | 18.64840 | 32081 ft | 491 kts | 283° |
| 2026-05-06 03:50 | 35.51877 | 18.56672 | 32072 ft | 491 kts | 283° |
| 2026-05-06 03:50 | 35.53348 | 18.48534 | 32070 ft | 491 kts | 283° |
| 2026-05-06 03:51 | 35.54819 | 18.40370 | 32065 ft | 491 kts | 283° |
| 2026-05-06 03:51 | 35.56281 | 18.32219 | 32064 ft | 492 kts | 282° |
| 2026-05-06 03:52 | 35.57746 | 18.24015 | 32063 ft | 492 kts | 282° |
| 2026-05-06 03:52 | 35.59203 | 18.15825 | 32056 ft | 492 kts | 282° |
| 2026-05-06 03:53 | 35.60651 | 18.07654 | 32051 ft | 493 kts | 282° |
| 2026-05-06 03:53 | 35.62106 | 17.99402 | 32051 ft | 493 kts | 282° |
| 2026-05-06 03:54 | 35.63541 | 17.91236 | 32046 ft | 493 kts | 282° |
| 2026-05-06 03:54 | 35.64977 | 17.83029 | 32047 ft | 493 kts | 282° |
| 2026-05-06 03:55 | 35.66411 | 17.74791 | 32047 ft | 492 kts | 282° |
| 2026-05-06 03:55 | 35.67829 | 17.66617 | 32048 ft | 493 kts | 282° |
| 2026-05-06 03:56 | 35.69257 | 17.58346 | 32047 ft | 493 kts | 282° |
| 2026-05-06 03:56 | 35.70673 | 17.50115 | 32040 ft | 494 kts | 282° |
| 2026-05-06 03:57 | 35.72083 | 17.41878 | 32045 ft | 494 kts | 282° |
| 2026-05-06 03:57 | 35.73486 | 17.33648 | 32046 ft | 494 kts | 281° |
| 2026-05-06 03:58 | 35.74886 | 17.25402 | 32051 ft | 493 kts | 281° |
| 2026-05-06 03:58 | 35.76273 | 17.17188 | 32050 ft | 494 kts | 281° |
| 2026-05-06 03:59 | 35.77664 | 17.08923 | 32052 ft | 494 kts | 281° |
| 2026-05-06 03:59 | 35.79052 | 17.00638 | 32048 ft | 495 kts | 281° |
| 2026-05-06 04:00 | 35.80430 | 16.92374 | 32045 ft | 494 kts | 281° |
| 2026-05-06 04:00 | 35.81803 | 16.84102 | 32043 ft | 494 kts | 281° |
| 2026-05-06 04:01 | 35.83172 | 16.75822 | 32045 ft | 494 kts | 281° |
| 2026-05-06 04:01 | 35.84530 | 16.67566 | 32038 ft | 494 kts | 281° |
| 2026-05-06 04:02 | 35.85890 | 16.59264 | 32035 ft | 493 kts | 281° |
| 2026-05-06 04:02 | 35.87229 | 16.51053 | 32033 ft | 493 kts | 281° |
| 2026-05-06 04:03 | 35.88571 | 16.42783 | 32033 ft | 492 kts | 281° |
| 2026-05-06 04:03 | 35.89908 | 16.34506 | 32034 ft | 494 kts | 280° |
| 2026-05-06 04:04 | 35.91241 | 16.26222 | 32035 ft | 493 kts | 280° |
| 2026-05-06 04:04 | 35.92557 | 16.17999 | 32031 ft | 492 kts | 280° |
| 2026-05-06 04:05 | 35.93872 | 16.09745 | 32028 ft | 493 kts | 281° |
| 2026-05-06 04:05 | 35.95185 | 16.01470 | 32030 ft | 492 kts | 280° |
| 2026-05-06 04:06 | 35.96498 | 15.93149 | 32026 ft | 493 kts | 280° |
| 2026-05-06 04:06 | 35.97797 | 15.84887 | 32031 ft | 492 kts | 280° |
| 2026-05-06 04:07 | 35.99086 | 15.76644 | 32040 ft | 491 kts | 280° |
| 2026-05-06 04:07 | 36.00377 | 15.68354 | 32040 ft | 491 kts | 280° |
| 2026-05-06 04:08 | 36.01653 | 15.60113 | 32035 ft | 492 kts | 281° |
| 2026-05-06 04:08 | 36.02931 | 15.51827 | 32032 ft | 492 kts | 280° |
| 2026-05-06 04:09 | 36.04202 | 15.43540 | 32019 ft | 492 kts | 280° |
| 2026-05-06 04:09 | 36.05467 | 15.35260 | 32027 ft | 493 kts | 280° |
| 2026-05-06 04:10 | 36.06731 | 15.26941 | 32030 ft | 492 kts | 280° |
| 2026-05-06 04:10 | 36.07980 | 15.18687 | 32031 ft | 491 kts | 280° |
| 2026-05-06 04:11 | 36.09230 | 15.10378 | 32021 ft | 491 kts | 280° |
| 2026-05-06 04:11 | 36.10464 | 15.02137 | 32013 ft | 492 kts | 280° |
| 2026-05-06 04:12 | 36.11700 | 14.93846 | 32019 ft | 493 kts | 280° |
| 2026-05-06 04:12 | 36.12938 | 14.85498 | 32009 ft | 491 kts | 280° |
| 2026-05-06 04:13 | 36.14160 | 14.77218 | 32011 ft | 492 kts | 280° |
| 2026-05-06 04:13 | 36.15382 | 14.68895 | 32012 ft | 492 kts | 280° |
| 2026-05-06 04:14 | 36.16589 | 14.60636 | 32014 ft | 492 kts | 279° |
| 2026-05-06 04:14 | 36.17800 | 14.52299 | 32012 ft | 492 kts | 280° |
| 2026-05-06 04:15 | 36.18999 | 14.44011 | 32015 ft | 493 kts | 280° |
| 2026-05-06 04:15 | 36.20195 | 14.35700 | 32007 ft | 492 kts | 280° |
| 2026-05-06 04:16 | 36.21385 | 14.27384 | 32012 ft | 492 kts | 279° |
| 2026-05-06 04:16 | 36.22568 | 14.19079 | 32011 ft | 492 kts | 279° |
| 2026-05-06 04:17 | 36.23754 | 14.10708 | 32008 ft | 493 kts | 279° |
| 2026-05-06 04:17 | 36.24927 | 14.02387 | 32010 ft | 493 kts | 279° |
| 2026-05-06 04:18 | 36.26096 | 13.94044 | 32007 ft | 492 kts | 279° |
| 2026-05-06 04:18 | 36.27261 | 13.85694 | 32002 ft | 493 kts | 279° |
| 2026-05-06 04:19 | 36.28416 | 13.77371 | 31998 ft | 492 kts | 279° |
| 2026-05-06 04:19 | 36.29562 | 13.69063 | 32000 ft | 492 kts | 279° |
| 2026-05-06 04:20 | 36.30707 | 13.60721 | 31997 ft | 492 kts | 279° |
| 2026-05-06 04:20 | 36.31852 | 13.52338 | 31993 ft | 492 kts | 279° |
| 2026-05-06 04:21 | 36.32980 | 13.44031 | 31983 ft | 492 kts | 279° |
| 2026-05-06 04:21 | 36.34106 | 13.35696 | 31979 ft | 489 kts | 279° |
| 2026-05-06 04:22 | 36.35215 | 13.27440 | 31980 ft | 487 kts | 278° |
| 2026-05-06 04:23 | 36.36873 | 13.15014 | 31979 ft | 487 kts | 278° |
| 2026-05-06 04:23 | 36.37963 | 13.06790 | 31977 ft | 487 kts | 278° |
| 2026-05-06 04:24 | 36.39059 | 12.98465 | 31977 ft | 487 kts | 278° |
| 2026-05-06 04:24 | 36.40143 | 12.90201 | 31971 ft | 487 kts | 278° |
| 2026-05-06 04:25 | 36.41217 | 12.81958 | 31973 ft | 485 kts | 278° |
| 2026-05-06 04:25 | 36.42289 | 12.73686 | 31971 ft | 486 kts | 278° |
| 2026-05-06 04:26 | 36.43348 | 12.65469 | 31967 ft | 485 kts | 278° |
| 2026-05-06 04:26 | 36.44404 | 12.57232 | 31963 ft | 485 kts | 278° |
| 2026-05-06 04:27 | 36.45457 | 12.48966 | 31961 ft | 486 kts | 278° |
| 2026-05-06 04:27 | 36.46499 | 12.40747 | 31960 ft | 484 kts | 278° |
| 2026-05-06 04:28 | 36.47541 | 12.32474 | 31965 ft | 485 kts | 278° |
| 2026-05-06 04:28 | 36.48571 | 12.24259 | 31962 ft | 483 kts | 278° |
| 2026-05-06 04:29 | 36.49600 | 12.15991 | 31961 ft | 483 kts | 278° |
| 2026-05-06 04:29 | 36.50807 | 12.07818 | 31963 ft | 483 kts | 283° |
| 2026-05-06 04:30 | 36.52443 | 11.99696 | 31956 ft | 484 kts | 283° |
| 2026-05-06 04:30 | 36.54046 | 11.91586 | 31959 ft | 484 kts | 283° |
| 2026-05-06 04:31 | 36.55619 | 11.83501 | 31955 ft | 483 kts | 283° |
| 2026-05-06 04:31 | 36.57185 | 11.75374 | 31952 ft | 482 kts | 283° |
| 2026-05-06 04:32 | 36.58733 | 11.67274 | 31957 ft | 483 kts | 283° |
| 2026-05-06 04:32 | 36.60268 | 11.59202 | 31953 ft | 481 kts | 283° |
| 2026-05-06 04:33 | 36.61789 | 11.51104 | 31945 ft | 480 kts | 281° |
| 2026-05-06 04:33 | 36.62637 | 11.42888 | 31958 ft | 480 kts | 276° |
| 2026-05-06 04:34 | 36.63345 | 11.34659 | 31956 ft | 480 kts | 276° |
| 2026-05-06 04:34 | 36.64048 | 11.26427 | 31959 ft | 479 kts | 276° |
| 2026-05-06 04:35 | 36.64747 | 11.18193 | 31960 ft | 478 kts | 276° |
| 2026-05-06 04:35 | 36.65439 | 11.09983 | 31963 ft | 478 kts | 276° |
| 2026-05-06 04:36 | 36.66124 | 11.01785 | 31958 ft | 478 kts | 276° |
| 2026-05-06 04:36 | 36.66803 | 10.93600 | 31954 ft | 476 kts | 276° |
| 2026-05-06 04:37 | 36.67477 | 10.85393 | 31956 ft | 477 kts | 276° |
| 2026-05-06 04:37 | 36.68143 | 10.77228 | 31957 ft | 475 kts | 276° |
| 2026-05-06 04:38 | 36.68804 | 10.69054 | 31947 ft | 477 kts | 276° |
| 2026-05-06 04:38 | 36.69458 | 10.60893 | 31948 ft | 474 kts | 276° |
| 2026-05-06 04:39 | 36.70105 | 10.52735 | 31945 ft | 476 kts | 276° |
| 2026-05-06 04:39 | 36.70748 | 10.44570 | 31945 ft | 474 kts | 276° |
| 2026-05-06 04:40 | 36.71386 | 10.36401 | 31941 ft | 474 kts | 276° |
| 2026-05-06 04:40 | 36.72020 | 10.28212 | 31945 ft | 472 kts | 275° |
| 2026-05-06 04:41 | 36.72642 | 10.20088 | 31945 ft | 473 kts | 275° |
| 2026-05-06 04:41 | 36.73259 | 10.11970 | 31938 ft | 473 kts | 275° |
| 2026-05-06 04:42 | 36.73872 | 10.03818 | 31934 ft | 472 kts | 275° |
| 2026-05-06 04:42 | 36.74476 | 9.95724 | 31931 ft | 472 kts | 275° |
| 2026-05-06 04:43 | 36.75075 | 9.87612 | 31926 ft | 471 kts | 275° |
| 2026-05-06 04:43 | 36.75673 | 9.79453 | 31923 ft | 472 kts | 275° |
| 2026-05-06 04:44 | 36.76260 | 9.71348 | 31916 ft | 472 kts | 275° |
| 2026-05-06 04:44 | 36.76845 | 9.63207 | 31926 ft | 471 kts | 275° |
| 2026-05-06 04:45 | 36.77420 | 9.55126 | 31933 ft | 471 kts | 275° |
| 2026-05-06 04:45 | 36.77989 | 9.47038 | 31947 ft | 470 kts | 274° |
| 2026-05-06 04:46 | 36.78556 | 9.38908 | 31932 ft | 469 kts | 275° |
| 2026-05-06 04:46 | 36.79116 | 9.30802 | 31939 ft | 470 kts | 274° |
| 2026-05-06 04:47 | 36.79669 | 9.22706 | 31937 ft | 469 kts | 274° |
| 2026-05-06 04:47 | 36.80213 | 9.14674 | 31928 ft | 468 kts | 274° |
| 2026-05-06 04:48 | 36.80756 | 9.06567 | 31929 ft | 468 kts | 274° |
| 2026-05-06 04:48 | 36.81289 | 8.98527 | 31920 ft | 469 kts | 274° |
| 2026-05-06 04:49 | 36.81820 | 8.90444 | 31921 ft | 468 kts | 274° |
| 2026-05-06 04:49 | 36.82346 | 8.82342 | 31921 ft | 467 kts | 274° |
| 2026-05-06 04:50 | 36.82864 | 8.74274 | 31923 ft | 468 kts | 273° |
| 2026-05-06 04:50 | 36.83375 | 8.66194 | 31915 ft | 468 kts | 272° |
| 2026-05-06 04:51 | 36.83455 | 8.58160 | 31912 ft | 467 kts | 269° |
| 2026-05-06 04:51 | 36.83459 | 8.50048 | 31903 ft | 468 kts | 269° |
| 2026-05-06 04:52 | 36.83456 | 8.41950 | 31909 ft | 466 kts | 269° |
| 2026-05-06 04:52 | 36.83447 | 8.33876 | 31910 ft | 466 kts | 269° |
| 2026-05-06 04:53 | 36.83432 | 8.25837 | 31916 ft | 465 kts | 268° |
| 2026-05-06 04:53 | 36.83412 | 8.17772 | 31910 ft | 465 kts | 268° |
| 2026-05-06 04:54 | 36.83387 | 8.09722 | 31909 ft | 467 kts | 269° |
| 2026-05-06 04:54 | 36.83355 | 8.01650 | 31909 ft | 464 kts | 269° |
| 2026-05-06 04:55 | 36.83319 | 7.93618 | 31906 ft | 466 kts | 269° |
| 2026-05-06 04:55 | 36.83277 | 7.85568 | 31903 ft | 465 kts | 268° |
| 2026-05-06 04:56 | 36.83219 | 7.77485 | 31904 ft | 465 kts | 268° |
| 2026-05-06 04:56 | 36.83133 | 7.69465 | 31906 ft | 464 kts | 268° |
| 2026-05-06 04:57 | 36.83041 | 7.61442 | 31911 ft | 465 kts | 268° |
| 2026-05-06 04:57 | 36.82945 | 7.53416 | 31913 ft | 464 kts | 268° |
| 2026-05-06 04:58 | 36.82844 | 7.45377 | 31911 ft | 461 kts | 268° |
| 2026-05-06 04:58 | 36.82737 | 7.37355 | 31918 ft | 464 kts | 268° |
| 2026-05-06 04:59 | 36.82626 | 7.29355 | 31925 ft | 461 kts | 267° |
| 2026-05-06 04:59 | 36.82510 | 7.21348 | 31920 ft | 462 kts | 268° |
| 2026-05-06 05:00 | 36.82388 | 7.13344 | 31918 ft | 464 kts | 267° |
| 2026-05-06 05:00 | 36.82261 | 7.05340 | 31918 ft | 462 kts | 267° |
| 2026-05-06 05:01 | 36.82128 | 6.97333 | 31928 ft | 464 kts | 267° |
| 2026-05-06 05:01 | 36.81990 | 6.89351 | 31932 ft | 462 kts | 267° |
| 2026-05-06 05:02 | 36.81847 | 6.81332 | 31936 ft | 462 kts | 267° |
| 2026-05-06 05:02 | 36.81699 | 6.73346 | 31935 ft | 462 kts | 267° |
| 2026-05-06 05:03 | 36.81545 | 6.65369 | 31939 ft | 459 kts | 266° |
| 2026-05-06 05:03 | 36.81387 | 6.57437 | 31931 ft | 462 kts | 266° |
| 2026-05-06 05:04 | 36.81222 | 6.49416 | 31938 ft | 460 kts | 266° |
| 2026-05-06 05:04 | 36.81052 | 6.41447 | 31935 ft | 463 kts | 266° |
| 2026-05-06 05:05 | 36.80878 | 6.33483 | 31933 ft | 461 kts | 265° |
| 2026-05-06 05:05 | 36.80697 | 6.25492 | 31931 ft | 463 kts | 265° |
| 2026-05-06 05:06 | 36.80511 | 6.17475 | 31932 ft | 462 kts | 265° |
| 2026-05-06 05:06 | 36.80319 | 6.09473 | 31951 ft | 464 kts | 265° |
| 2026-05-06 05:07 | 36.80122 | 6.01473 | 31948 ft | 463 kts | 265° |
| 2026-05-06 05:07 | 36.79919 | 5.93455 | 31949 ft | 465 kts | 265° |
| 2026-05-06 05:08 | 36.79554 | 5.85494 | 31942 ft | 459 kts | 261° |
| 2026-05-06 05:08 | 36.78773 | 5.77608 | 31945 ft | 462 kts | 261° |
| 2026-05-06 05:09 | 36.77977 | 5.69684 | 31947 ft | 461 kts | 261° |
| 2026-05-06 05:09 | 36.77173 | 5.61749 | 31930 ft | 460 kts | 261° |
| 2026-05-06 05:10 | 36.76371 | 5.53873 | 31944 ft | 460 kts | 261° |
| 2026-05-06 05:10 | 36.75564 | 5.46012 | 31941 ft | 460 kts | 261° |
| 2026-05-06 05:11 | 36.74749 | 5.38131 | 31944 ft | 459 kts | 261° |
| 2026-05-06 05:11 | 36.73933 | 5.30284 | 31954 ft | 460 kts | 260° |
| 2026-05-06 05:12 | 36.73106 | 5.22385 | 31958 ft | 457 kts | 260° |
| 2026-05-06 05:12 | 36.72283 | 5.14578 | 31958 ft | 458 kts | 260° |
| 2026-05-06 05:13 | 36.71447 | 5.06678 | 31965 ft | 458 kts | 261° |
| 2026-05-06 05:13 | 36.71115 | 4.98762 | 31958 ft | 459 kts | 265° |
| 2026-05-06 05:14 | 36.70864 | 4.90851 | 31956 ft | 459 kts | 265° |
| 2026-05-06 05:14 | 36.70583 | 4.82926 | 31957 ft | 458 kts | 265° |
| 2026-05-06 05:15 | 36.70285 | 4.75021 | 31964 ft | 459 kts | 265° |
| 2026-05-06 05:15 | 36.69976 | 4.67105 | 31966 ft | 458 kts | 265° |
| 2026-05-06 05:16 | 36.69656 | 4.59150 | 31963 ft | 459 kts | 265° |
| 2026-05-06 05:16 | 36.69332 | 4.51270 | 31960 ft | 459 kts | 265° |
| 2026-05-06 05:17 | 36.68999 | 4.43329 | 31958 ft | 460 kts | 264° |
| 2026-05-06 05:17 | 36.68661 | 4.35387 | 31955 ft | 459 kts | 265° |
| 2026-05-06 05:18 | 36.68320 | 4.27511 | 31947 ft | 459 kts | 264° |
| 2026-05-06 05:18 | 36.67970 | 4.19542 | 31943 ft | 460 kts | 264° |
| 2026-05-06 05:19 | 36.67617 | 4.11634 | 31946 ft | 459 kts | 264° |
| 2026-05-06 05:19 | 36.67258 | 4.03722 | 31941 ft | 460 kts | 264° |
| 2026-05-06 05:20 | 36.66893 | 3.95799 | 31948 ft | 458 kts | 264° |
| 2026-05-06 05:20 | 36.66524 | 3.87885 | 31954 ft | 459 kts | 264° |
| 2026-05-06 05:21 | 36.66148 | 3.79938 | 31949 ft | 460 kts | 264° |
| 2026-05-06 05:21 | 36.65768 | 3.72027 | 31939 ft | 460 kts | 264° |
| 2026-05-06 05:22 | 36.65382 | 3.64104 | 31949 ft | 461 kts | 264° |
| 2026-05-06 05:22 | 36.64758 | 3.56197 | 31955 ft | 459 kts | 259° |
| 2026-05-06 05:23 | 36.63757 | 3.48345 | 31946 ft | 458 kts | 259° |
| 2026-05-06 05:23 | 36.62246 | 3.36640 | 31945 ft | 459 kts | 259° |
| 2026-05-06 05:24 | 36.61232 | 3.28831 | 31950 ft | 460 kts | 259° |
| 2026-05-06 05:24 | 36.60210 | 3.21006 | 31946 ft | 460 kts | 259° |
| 2026-05-06 05:25 | 36.59181 | 3.13162 | 31948 ft | 459 kts | 259° |
| 2026-05-06 05:25 | 36.58147 | 3.05326 | 31947 ft | 462 kts | 259° |
| 2026-05-06 05:26 | 36.57114 | 2.97539 | 31951 ft | 460 kts | 259° |
| 2026-05-06 05:26 | 36.56068 | 2.89687 | 31947 ft | 461 kts | 259° |
| 2026-05-06 05:27 | 36.55018 | 2.81851 | 31942 ft | 461 kts | 259° |
| 2026-05-06 05:27 | 36.53958 | 2.73983 | 31932 ft | 464 kts | 259° |
| 2026-05-06 05:28 | 36.52892 | 2.66108 | 31930 ft | 463 kts | 259° |
| 2026-05-06 05:28 | 36.51818 | 2.58214 | 31926 ft | 465 kts | 259° |
| 2026-05-06 05:29 | 36.50735 | 2.50298 | 31924 ft | 465 kts | 259° |
| 2026-05-06 05:29 | 36.49651 | 2.42415 | 31925 ft | 465 kts | 259° |
| 2026-05-06 05:30 | 36.48556 | 2.34485 | 31928 ft | 465 kts | 258° |
| 2026-05-06 05:30 | 36.47455 | 2.26560 | 31943 ft | 466 kts | 258° |
| 2026-05-06 05:31 | 36.46355 | 2.18676 | 31941 ft | 468 kts | 258° |
| 2026-05-06 05:31 | 36.45240 | 2.10730 | 31940 ft | 467 kts | 259° |
| 2026-05-06 05:32 | 36.44119 | 2.02778 | 31939 ft | 468 kts | 259° |
| 2026-05-06 05:32 | 36.42997 | 1.94853 | 31940 ft | 469 kts | 259° |
| 2026-05-06 05:33 | 36.41859 | 1.86864 | 31937 ft | 470 kts | 259° |
| 2026-05-06 05:33 | 36.40721 | 1.78908 | 31936 ft | 471 kts | 259° |
| 2026-05-06 05:34 | 36.39575 | 1.70939 | 31934 ft | 469 kts | 259° |
| 2026-05-06 05:34 | 36.38423 | 1.62970 | 31930 ft | 470 kts | 259° |
| 2026-05-06 05:35 | 36.37273 | 1.55046 | 31932 ft | 471 kts | 259° |
| 2026-05-06 05:35 | 36.35563 | 1.47239 | 31927 ft | 470 kts | 249° |
| 2026-05-06 05:36 | 36.33081 | 1.39739 | 31929 ft | 472 kts | 249° |
| 2026-05-06 05:36 | 36.30574 | 1.32252 | 31936 ft | 473 kts | 248° |
| 2026-05-06 05:37 | 36.28046 | 1.24735 | 31938 ft | 471 kts | 248° |
| 2026-05-06 05:37 | 36.25528 | 1.17274 | 31936 ft | 473 kts | 248° |
| 2026-05-06 05:38 | 36.22986 | 1.09761 | 31936 ft | 473 kts | 248° |
| 2026-05-06 05:38 | 36.20444 | 1.02270 | 31937 ft | 475 kts | 249° |
| 2026-05-06 05:39 | 36.17892 | 0.94769 | 31929 ft | 474 kts | 249° |
| 2026-05-06 05:39 | 36.15338 | 0.87282 | 31922 ft | 474 kts | 249° |
| 2026-05-06 05:40 | 36.12767 | 0.79764 | 31910 ft | 473 kts | 249° |
| 2026-05-06 05:40 | 36.10211 | 0.72308 | 31911 ft | 473 kts | 249° |
| 2026-05-06 05:41 | 36.07647 | 0.64846 | 31902 ft | 474 kts | 249° |
| 2026-05-06 05:41 | 36.05069 | 0.57364 | 31906 ft | 472 kts | 249° |
| 2026-05-06 05:42 | 36.02477 | 0.49860 | 31898 ft | 473 kts | 249° |
| 2026-05-06 05:42 | 35.99913 | 0.42452 | 31911 ft | 472 kts | 249° |
| 2026-05-06 05:43 | 35.97324 | 0.34992 | 31900 ft | 471 kts | 248° |
| 2026-05-06 05:43 | 35.94738 | 0.27560 | 31912 ft | 473 kts | 249° |
| 2026-05-06 05:44 | 35.92253 | 0.20141 | 31927 ft | 469 kts | 254° |
| 2026-05-06 05:44 | 35.91154 | 0.12233 | 31917 ft | 467 kts | 269° |
| 2026-05-06 05:45 | 35.91930 | 0.04353 | 31923 ft | 467 kts | 284° |
| 2026-05-06 05:45 | 35.93648 | -0.03356 | 31924 ft | 469 kts | 284° |
| 2026-05-06 05:46 | 35.95374 | -0.11055 | 31921 ft | 467 kts | 284° |
| 2026-05-06 05:46 | 35.97089 | -0.18760 | 31915 ft | 467 kts | 284° |
| 2026-05-06 05:47 | 35.98789 | -0.26436 | 31921 ft | 467 kts | 284° |
| 2026-05-06 05:47 | 36.00497 | -0.34180 | 31909 ft | 465 kts | 284° |
| 2026-05-06 05:48 | 36.02185 | -0.41862 | 31911 ft | 465 kts | 284° |
| 2026-05-06 05:48 | 36.03860 | -0.49515 | 31919 ft | 464 kts | 284° |
| 2026-05-06 05:49 | 36.05545 | -0.57239 | 31913 ft | 465 kts | 284° |
| 2026-05-06 05:49 | 36.07212 | -0.64908 | 31904 ft | 463 kts | 284° |
| 2026-05-06 05:50 | 36.08872 | -0.72567 | 31914 ft | 463 kts | 283° |
| 2026-05-06 05:50 | 36.10525 | -0.80224 | 31910 ft | 462 kts | 283° |
| 2026-05-06 05:51 | 36.12179 | -0.87907 | 31906 ft | 462 kts | 283° |
| 2026-05-06 05:51 | 36.13821 | -0.95566 | 31903 ft | 462 kts | 283° |
| 2026-05-06 05:52 | 36.15458 | -1.03224 | 31906 ft | 463 kts | 283° |
| 2026-05-06 05:52 | 36.17088 | -1.10875 | 31900 ft | 461 kts | 283° |
| 2026-05-06 05:53 | 36.18716 | -1.18540 | 31899 ft | 461 kts | 283° |
| 2026-05-06 05:53 | 36.20326 | -1.26154 | 31899 ft | 460 kts | 283° |
| 2026-05-06 05:54 | 36.21940 | -1.33805 | 31896 ft | 459 kts | 283° |
| 2026-05-06 05:54 | 36.23544 | -1.41440 | 31895 ft | 459 kts | 283° |
| 2026-05-06 05:55 | 36.25141 | -1.49067 | 31893 ft | 459 kts | 283° |
| 2026-05-06 05:55 | 36.26736 | -1.56705 | 31892 ft | 459 kts | 283° |
| 2026-05-06 05:56 | 36.28318 | -1.64313 | 31887 ft | 458 kts | 283° |
| 2026-05-06 05:56 | 36.29900 | -1.71947 | 31900 ft | 459 kts | 282° |
| 2026-05-06 05:57 | 36.31480 | -1.79591 | 31904 ft | 459 kts | 282° |
| 2026-05-06 05:57 | 36.33056 | -1.87248 | 31898 ft | 457 kts | 282° |
| 2026-05-06 05:58 | 36.34611 | -1.94832 | 31900 ft | 458 kts | 282° |
| 2026-05-06 05:58 | 36.36177 | -2.02491 | 31891 ft | 457 kts | 282° |
| 2026-05-06 05:59 | 36.37725 | -2.10093 | 31882 ft | 456 kts | 282° |
| 2026-05-06 05:59 | 36.39273 | -2.17717 | 31885 ft | 457 kts | 282° |
| 2026-05-06 06:00 | 36.40813 | -2.25334 | 31881 ft | 457 kts | 282° |
| 2026-05-06 06:00 | 36.42353 | -2.32977 | 31881 ft | 458 kts | 282° |
| 2026-05-06 06:01 | 36.43886 | -2.40611 | 31886 ft | 458 kts | 282° |
| 2026-05-06 06:01 | 36.45411 | -2.48231 | 31885 ft | 458 kts | 282° |
| 2026-05-06 06:02 | 36.46941 | -2.55904 | 31889 ft | 458 kts | 282° |
| 2026-05-06 06:02 | 36.48467 | -2.63587 | 31895 ft | 457 kts | 282° |
| 2026-05-06 06:03 | 36.49971 | -2.71187 | 31915 ft | 457 kts | 281° |
| 2026-05-06 06:03 | 36.51482 | -2.78846 | 31916 ft | 457 kts | 281° |
| 2026-05-06 06:04 | 36.52985 | -2.86497 | 31916 ft | 458 kts | 281° |
| 2026-05-06 06:04 | 36.54487 | -2.94169 | 31913 ft | 458 kts | 281° |
| 2026-05-06 06:05 | 36.55987 | -3.01858 | 31916 ft | 458 kts | 281° |
| 2026-05-06 06:05 | 36.57480 | -3.09540 | 31917 ft | 458 kts | 281° |
| 2026-05-06 06:06 | 36.58960 | -3.17186 | 31917 ft | 458 kts | 281° |
| 2026-05-06 06:06 | 36.60446 | -3.24889 | 31913 ft | 460 kts | 281° |
| 2026-05-06 06:07 | 36.61934 | -3.32629 | 31910 ft | 459 kts | 281° |
| 2026-05-06 06:07 | 36.63405 | -3.40309 | 31909 ft | 459 kts | 281° |
| 2026-05-06 06:08 | 36.64875 | -3.48016 | 31912 ft | 458 kts | 281° |
| 2026-05-06 06:08 | 36.66348 | -3.55769 | 31922 ft | 459 kts | 281° |
| 2026-05-06 06:09 | 36.67805 | -3.63466 | 31923 ft | 459 kts | 281° |
| 2026-05-06 06:09 | 36.69256 | -3.71158 | 31937 ft | 459 kts | 280° |
| 2026-05-06 06:10 | 36.70714 | -3.78922 | 31938 ft | 460 kts | 280° |
| 2026-05-06 06:10 | 36.72157 | -3.86633 | 31939 ft | 460 kts | 280° |
| 2026-05-06 06:11 | 36.73604 | -3.94394 | 31939 ft | 460 kts | 280° |
| 2026-05-06 06:11 | 36.75040 | -4.02126 | 31939 ft | 461 kts | 281° |
| 2026-05-06 06:12 | 36.76474 | -4.09877 | 31942 ft | 460 kts | 281° |
| 2026-05-06 06:12 | 36.77903 | -4.17631 | 31942 ft | 459 kts | 281° |
| 2026-05-06 06:13 | 36.79330 | -4.25405 | 31943 ft | 460 kts | 280° |
| 2026-05-06 06:13 | 36.80745 | -4.33145 | 31937 ft | 460 kts | 281° |
| 2026-05-06 06:14 | 36.82979 | -4.40610 | 31945 ft | 467 kts | 294° |
| 2026-05-06 06:14 | 36.86013 | -4.47746 | 31938 ft | 466 kts | 294° |
| 2026-05-06 06:15 | 36.89053 | -4.54887 | 31942 ft | 465 kts | 294° |
| 2026-05-06 06:15 | 36.92088 | -4.62042 | 31943 ft | 466 kts | 294° |
| 2026-05-06 06:16 | 36.95104 | -4.69173 | 31953 ft | 465 kts | 294° |
| 2026-05-06 06:16 | 36.98124 | -4.76334 | 31953 ft | 466 kts | 294° |
| 2026-05-06 06:17 | 37.01136 | -4.83491 | 31951 ft | 467 kts | 294° |
| 2026-05-06 06:17 | 37.04144 | -4.90656 | 31951 ft | 467 kts | 294° |
| 2026-05-06 06:18 | 37.07224 | -4.97796 | 31955 ft | 468 kts | 296° |
| 2026-05-06 06:18 | 37.10490 | -5.04879 | 31951 ft | 468 kts | 296° |
| 2026-05-06 06:19 | 37.13731 | -5.11943 | 31943 ft | 469 kts | 296° |
| 2026-05-06 06:19 | 37.16954 | -5.19000 | 31943 ft | 468 kts | 296° |
| 2026-05-06 06:20 | 37.20184 | -5.26098 | 31944 ft | 468 kts | 296° |
| 2026-05-06 06:20 | 37.23411 | -5.33209 | 31945 ft | 468 kts | 296° |
| 2026-05-06 06:21 | 37.26620 | -5.40298 | 31949 ft | 468 kts | 296° |
| 2026-05-06 06:21 | 37.29819 | -5.47382 | 31943 ft | 468 kts | 296° |
| 2026-05-06 06:22 | 37.33020 | -5.54487 | 31947 ft | 468 kts | 296° |
| 2026-05-06 06:22 | 37.36223 | -5.61610 | 31947 ft | 468 kts | 296° |
| 2026-05-06 06:23 | 37.39412 | -5.68721 | 31960 ft | 468 kts | 295° |
| 2026-05-06 06:23 | 37.42591 | -5.75822 | 31962 ft | 468 kts | 295° |
| 2026-05-06 06:24 | 37.45800 | -5.82938 | 31964 ft | 469 kts | 295° |
| 2026-05-06 06:24 | 37.49025 | -5.90075 | 31962 ft | 468 kts | 295° |
| 2026-05-06 06:25 | 37.52228 | -5.97185 | 31959 ft | 469 kts | 295° |
| 2026-05-06 06:26 | 37.57042 | -6.07899 | 31963 ft | 469 kts | 295° |
| 2026-05-06 06:26 | 37.60251 | -6.15063 | 31955 ft | 469 kts | 295° |
| 2026-05-06 06:27 | 37.63437 | -6.22192 | 31962 ft | 468 kts | 295° |
| 2026-05-06 06:27 | 37.66637 | -6.29368 | 31970 ft | 469 kts | 295° |
| 2026-05-06 06:28 | 37.69830 | -6.36545 | 31964 ft | 468 kts | 295° |
| 2026-05-06 06:28 | 37.73008 | -6.43703 | 31959 ft | 470 kts | 295° |
| 2026-05-06 06:29 | 37.76199 | -6.50906 | 31960 ft | 470 kts | 295° |
| 2026-05-06 06:29 | 37.79368 | -6.58076 | 31963 ft | 469 kts | 295° |
| 2026-05-06 06:30 | 37.82556 | -6.65304 | 31963 ft | 469 kts | 295° |
| 2026-05-06 06:30 | 37.85725 | -6.72508 | 31971 ft | 470 kts | 295° |
| 2026-05-06 06:31 | 37.88886 | -6.79709 | 31965 ft | 470 kts | 295° |
| 2026-05-06 06:31 | 37.92042 | -6.86913 | 31959 ft | 470 kts | 295° |
| 2026-05-06 06:32 | 37.95188 | -6.94112 | 31962 ft | 470 kts | 295° |
| 2026-05-06 06:32 | 37.98351 | -7.01365 | 31960 ft | 470 kts | 295° |
| 2026-05-06 06:33 | 38.01371 | -7.08728 | 31953 ft | 467 kts | 288° |
| 2026-05-06 06:33 | 38.02979 | -7.16594 | 31962 ft | 462 kts | 277° |
| 2026-05-06 06:34 | 38.04076 | -7.24638 | 31968 ft | 462 kts | 278° |
| 2026-05-06 06:34 | 38.05354 | -7.32592 | 31974 ft | 462 kts | 279° |
| 2026-05-06 06:35 | 38.06631 | -7.40585 | 31973 ft | 463 kts | 279° |
| 2026-05-06 06:35 | 38.07894 | -7.48575 | 31977 ft | 462 kts | 279° |
| 2026-05-06 06:36 | 38.09141 | -7.56538 | 31984 ft | 463 kts | 279° |
| 2026-05-06 06:36 | 38.10392 | -7.64581 | 31984 ft | 464 kts | 279° |
| 2026-05-06 06:37 | 38.11627 | -7.72561 | 31997 ft | 463 kts | 278° |
| 2026-05-06 06:37 | 38.12867 | -7.80620 | 31997 ft | 465 kts | 278° |
| 2026-05-06 06:38 | 38.14097 | -7.88650 | 32002 ft | 465 kts | 278° |
| 2026-05-06 06:38 | 38.15323 | -7.96692 | 31991 ft | 465 kts | 278° |
| 2026-05-06 06:39 | 38.16548 | -8.04773 | 31991 ft | 465 kts | 279° |
| 2026-05-06 06:39 | 38.17767 | -8.12852 | 31990 ft | 466 kts | 278° |
| 2026-05-06 06:40 | 38.18978 | -8.20917 | 31985 ft | 467 kts | 278° |
| 2026-05-06 06:40 | 38.20189 | -8.29021 | 31985 ft | 468 kts | 278° |
| 2026-05-06 06:41 | 38.21395 | -8.37135 | 31990 ft | 468 kts | 279° |
| 2026-05-06 06:41 | 38.22608 | -8.45332 | 32000 ft | 476 kts | 279° |
| 2026-05-06 06:42 | 38.23816 | -8.53539 | 31987 ft | 475 kts | 279° |
| 2026-05-06 06:42 | 38.25026 | -8.61799 | 31993 ft | 476 kts | 279° |
| 2026-05-06 06:43 | 38.26231 | -8.70071 | 31999 ft | 475 kts | 278° |
| 2026-05-06 06:43 | 38.27425 | -8.78303 | 32010 ft | 476 kts | 278° |
| 2026-05-06 06:44 | 38.28619 | -8.86589 | 32002 ft | 476 kts | 278° |
| 2026-05-06 06:44 | 38.29807 | -8.94868 | 32003 ft | 477 kts | 278° |
| 2026-05-06 06:45 | 38.30983 | -9.03105 | 32015 ft | 478 kts | 278° |
| 2026-05-06 06:45 | 38.32161 | -9.11406 | 32004 ft | 479 kts | 278° |
| 2026-05-06 06:46 | 38.33341 | -9.19759 | 32005 ft | 479 kts | 279° |
| 2026-05-06 06:46 | 38.34510 | -9.28085 | 32008 ft | 479 kts | 279° |
| 2026-05-06 06:47 | 38.35676 | -9.36432 | 32009 ft | 480 kts | 279° |
| 2026-05-06 06:47 | 38.36837 | -9.44791 | 32010 ft | 481 kts | 279° |
| 2026-05-06 06:48 | 38.37992 | -9.53143 | 32017 ft | 481 kts | 279° |
| 2026-05-06 06:48 | 38.39135 | -9.61463 | 32012 ft | 480 kts | 279° |
| 2026-05-06 06:49 | 38.40282 | -9.69853 | 32022 ft | 481 kts | 278° |
| 2026-05-06 06:49 | 38.41424 | -9.78256 | 32031 ft | 482 kts | 278° |
| 2026-05-06 06:50 | 38.42563 | -9.86682 | 32017 ft | 482 kts | 278° |
| 2026-05-06 06:50 | 38.43691 | -9.95070 | 32032 ft | 484 kts | 279° |
| 2026-05-06 06:51 | 38.44817 | -10.03498 | 32028 ft | 483 kts | 279° |
| 2026-05-06 06:51 | 38.45938 | -10.11932 | 32032 ft | 483 kts | 279° |
| 2026-05-06 06:52 | 38.47054 | -10.20379 | 32029 ft | 484 kts | 279° |
| 2026-05-06 06:52 | 38.48165 | -10.28832 | 32032 ft | 484 kts | 279° |
| 2026-05-06 06:53 | 38.49267 | -10.37273 | 32030 ft | 484 kts | 279° |
| 2026-05-06 06:53 | 38.50366 | -10.45735 | 32033 ft | 485 kts | 279° |
| 2026-05-06 06:54 | 38.51460 | -10.54206 | 32037 ft | 486 kts | 279° |
| 2026-05-06 06:54 | 38.52541 | -10.62633 | 32037 ft | 485 kts | 279° |
| 2026-05-06 06:55 | 38.53630 | -10.71166 | 32039 ft | 486 kts | 279° |
| 2026-05-06 06:55 | 38.54708 | -10.79664 | 32045 ft | 487 kts | 279° |
| 2026-05-06 06:56 | 38.55776 | -10.88131 | 32049 ft | 487 kts | 279° |
| 2026-05-06 06:56 | 38.56840 | -10.96629 | 32047 ft | 487 kts | 279° |
| 2026-05-06 06:57 | 38.57909 | -11.05211 | 32049 ft | 487 kts | 279° |
| 2026-05-06 06:57 | 38.58958 | -11.13683 | 32050 ft | 487 kts | 279° |
| 2026-05-06 06:58 | 38.60010 | -11.22240 | 32049 ft | 487 kts | 279° |
| 2026-05-06 06:58 | 38.61052 | -11.30761 | 32048 ft | 486 kts | 279° |
| 2026-05-06 06:59 | 38.62086 | -11.39267 | 32050 ft | 487 kts | 279° |
| 2026-05-06 06:59 | 38.63110 | -11.47752 | 32051 ft | 487 kts | 279° |
| 2026-05-06 07:00 | 38.64134 | -11.56282 | 32051 ft | 487 kts | 279° |
| 2026-05-06 07:00 | 38.65154 | -11.64842 | 32053 ft | 487 kts | 280° |
| 2026-05-06 07:01 | 38.66001 | -11.71985 | 32055 ft | 486 kts | 279° |
| 2026-05-06 07:01 | 38.67010 | -11.80560 | 32060 ft | 486 kts | 279° |
| 2026-05-06 07:02 | 38.68004 | -11.89050 | 32061 ft | 488 kts | 279° |
| 2026-05-06 07:02 | 38.69005 | -11.97653 | 32062 ft | 487 kts | 279° |
| 2026-05-06 07:03 | 38.69987 | -12.06159 | 32061 ft | 487 kts | 279° |
| 2026-05-06 07:03 | 38.70970 | -12.14725 | 32062 ft | 486 kts | 279° |
| 2026-05-06 07:04 | 38.71938 | -12.23212 | 32065 ft | 486 kts | 280° |
| 2026-05-06 07:04 | 38.72904 | -12.31739 | 32067 ft | 485 kts | 280° |
| 2026-05-06 07:05 | 38.73864 | -12.40269 | 32062 ft | 485 kts | 280° |
| 2026-05-06 07:05 | 38.74815 | -12.48784 | 32069 ft | 485 kts | 280° |
| 2026-05-06 07:06 | 38.75763 | -12.57319 | 32072 ft | 486 kts | 280° |
| 2026-05-06 07:06 | 38.76707 | -12.65889 | 32071 ft | 485 kts | 280° |
| 2026-05-06 07:07 | 38.77639 | -12.74396 | 32080 ft | 485 kts | 280° |
| 2026-05-06 07:07 | 38.78573 | -12.82986 | 32085 ft | 485 kts | 280° |
| 2026-05-06 07:08 | 38.79490 | -12.91482 | 32082 ft | 485 kts | 280° |
| 2026-05-06 07:08 | 38.80407 | -13.00034 | 32077 ft | 484 kts | 280° |
| 2026-05-06 07:09 | 38.81314 | -13.08555 | 32085 ft | 485 kts | 280° |
| 2026-05-06 07:09 | 38.82220 | -13.17122 | 32087 ft | 485 kts | 280° |
| 2026-05-06 07:10 | 38.83116 | -13.25664 | 32092 ft | 485 kts | 280° |
| 2026-05-06 07:10 | 38.84007 | -13.34213 | 32087 ft | 486 kts | 280° |
| 2026-05-06 07:11 | 38.84889 | -13.42731 | 32093 ft | 485 kts | 280° |
| 2026-05-06 07:11 | 38.85770 | -13.51315 | 32089 ft | 485 kts | 281° |
| 2026-05-06 07:12 | 38.86640 | -13.59849 | 32092 ft | 485 kts | 281° |
| 2026-05-06 07:12 | 38.87509 | -13.68441 | 32098 ft | 485 kts | 280° |
| 2026-05-06 07:13 | 38.88367 | -13.76982 | 32097 ft | 485 kts | 280° |
| 2026-05-06 07:13 | 38.89221 | -13.85554 | 32095 ft | 486 kts | 280° |
| 2026-05-06 07:14 | 38.90073 | -13.94164 | 32099 ft | 487 kts | 280° |
| 2026-05-06 07:14 | 38.90913 | -14.02720 | 32103 ft | 487 kts | 280° |
| 2026-05-06 07:15 | 38.91751 | -14.11320 | 32110 ft | 487 kts | 280° |
| 2026-05-06 07:15 | 38.92583 | -14.19933 | 32109 ft | 488 kts | 280° |
| 2026-05-06 07:16 | 38.93407 | -14.28525 | 32110 ft | 488 kts | 280° |
| 2026-05-06 07:16 | 38.94231 | -14.37187 | 32114 ft | 487 kts | 280° |
| 2026-05-06 07:17 | 38.95042 | -14.45781 | 32113 ft | 487 kts | 280° |
| 2026-05-06 07:17 | 38.95847 | -14.54384 | 32115 ft | 487 kts | 280° |
| 2026-05-06 07:18 | 38.96648 | -14.63008 | 32116 ft | 487 kts | 280° |
| 2026-05-06 07:18 | 38.97437 | -14.71575 | 32122 ft | 487 kts | 279° |
| 2026-05-06 07:19 | 38.98225 | -14.80194 | 32123 ft | 487 kts | 279° |
| 2026-05-06 07:19 | 38.99007 | -14.88827 | 32124 ft | 488 kts | 279° |
| 2026-05-06 07:20 | 38.99782 | -14.97455 | 32126 ft | 488 kts | 279° |
| 2026-05-06 07:20 | 39.00921 | -15.06039 | 32132 ft | 484 kts | 289° |
| 2026-05-06 07:21 | 39.02932 | -15.14219 | 32130 ft | 483 kts | 290° |
| 2026-05-06 07:21 | 39.04887 | -15.22447 | 32126 ft | 483 kts | 290° |
| 2026-05-06 07:22 | 39.06790 | -15.30734 | 32126 ft | 483 kts | 289° |
| 2026-05-06 07:22 | 39.08643 | -15.38964 | 32134 ft | 482 kts | 289° |
| 2026-05-06 07:23 | 39.10495 | -15.47291 | 32141 ft | 483 kts | 289° |
| 2026-05-06 07:23 | 39.12319 | -15.55563 | 32142 ft | 484 kts | 289° |
| 2026-05-06 07:24 | 39.14141 | -15.63874 | 32142 ft | 483 kts | 289° |
| 2026-05-06 07:24 | 39.15947 | -15.72157 | 32150 ft | 483 kts | 289° |
| 2026-05-06 07:25 | 39.17755 | -15.80488 | 32150 ft | 483 kts | 289° |
| 2026-05-06 07:25 | 39.19544 | -15.88760 | 32156 ft | 482 kts | 289° |
| 2026-05-06 07:26 | 39.21340 | -15.97100 | 32154 ft | 482 kts | 289° |
| 2026-05-06 07:26 | 39.23122 | -16.05409 | 32156 ft | 482 kts | 289° |
| 2026-05-06 07:27 | 39.24896 | -16.13709 | 32154 ft | 483 kts | 289° |
| 2026-05-06 07:27 | 39.26671 | -16.22050 | 32154 ft | 482 kts | 289° |
| 2026-05-06 07:28 | 39.28430 | -16.30350 | 32154 ft | 481 kts | 290° |
| 2026-05-06 07:28 | 39.31065 | -16.42837 | 32153 ft | 481 kts | 290° |
| 2026-05-06 07:29 | 39.32798 | -16.51092 | 32155 ft | 480 kts | 290° |
| 2026-05-06 07:29 | 39.34533 | -16.59390 | 32159 ft | 480 kts | 290° |
| 2026-05-06 07:30 | 39.36263 | -16.67692 | 32167 ft | 479 kts | 290° |
| 2026-05-06 07:30 | 39.37978 | -16.75952 | 32165 ft | 480 kts | 290° |
| 2026-05-06 07:31 | 39.39689 | -16.84235 | 32163 ft | 478 kts | 290° |
| 2026-05-06 07:31 | 39.41406 | -16.92569 | 32165 ft | 478 kts | 290° |
| 2026-05-06 07:32 | 39.43104 | -17.00849 | 32166 ft | 479 kts | 290° |
| 2026-05-06 07:32 | 39.44794 | -17.09125 | 32167 ft | 478 kts | 290° |
| 2026-05-06 07:33 | 39.46478 | -17.17403 | 32174 ft | 475 kts | 290° |
| 2026-05-06 07:33 | 39.48150 | -17.25646 | 32170 ft | 475 kts | 291° |
| 2026-05-06 07:34 | 39.49810 | -17.33878 | 32170 ft | 473 kts | 291° |
| 2026-05-06 07:34 | 39.51465 | -17.42099 | 32172 ft | 475 kts | 291° |
| 2026-05-06 07:35 | 39.53115 | -17.50342 | 32170 ft | 473 kts | 291° |
| 2026-05-06 07:35 | 39.54756 | -17.58571 | 32171 ft | 473 kts | 291° |
| 2026-05-06 07:36 | 39.56396 | -17.66826 | 32170 ft | 471 kts | 291° |
| 2026-05-06 07:36 | 39.58019 | -17.75024 | 32172 ft | 471 kts | 291° |
| 2026-05-06 07:37 | 39.59621 | -17.83155 | 32169 ft | 469 kts | 291° |
| 2026-05-06 07:37 | 39.61229 | -17.91348 | 32170 ft | 468 kts | 291° |
| 2026-05-06 07:38 | 39.62822 | -17.99500 | 32168 ft | 467 kts | 291° |
| 2026-05-06 07:38 | 39.64423 | -18.07707 | 32165 ft | 471 kts | 291° |
| 2026-05-06 07:39 | 39.65994 | -18.15825 | 32172 ft | 466 kts | 292° |
| 2026-05-06 07:39 | 39.67581 | -18.24032 | 32170 ft | 468 kts | 292° |
| 2026-05-06 07:40 | 39.69148 | -18.32183 | 32177 ft | 469 kts | 292° |
| 2026-05-06 07:40 | 39.70708 | -18.40323 | 32174 ft | 468 kts | 292° |
| 2026-05-06 07:41 | 39.72263 | -18.48483 | 32176 ft | 464 kts | 292° |
| 2026-05-06 07:41 | 39.73805 | -18.56599 | 32190 ft | 464 kts | 292° |
| 2026-05-06 07:42 | 39.75361 | -18.64810 | 32190 ft | 468 kts | 292° |
| 2026-05-06 07:42 | 39.76899 | -18.72986 | 32195 ft | 464 kts | 291° |
| 2026-05-06 07:43 | 39.78418 | -18.81080 | 32200 ft | 465 kts | 292° |
| 2026-05-06 07:43 | 39.79936 | -18.89201 | 32210 ft | 464 kts | 292° |
| 2026-05-06 07:44 | 39.81449 | -18.97330 | 32204 ft | 465 kts | 291° |
| 2026-05-06 07:44 | 39.82953 | -19.05449 | 32205 ft | 465 kts | 292° |
| 2026-05-06 07:45 | 39.84462 | -19.13625 | 32209 ft | 466 kts | 292° |
| 2026-05-06 07:45 | 39.85963 | -19.21800 | 32204 ft | 464 kts | 291° |
| 2026-05-06 07:46 | 39.87443 | -19.29893 | 32203 ft | 463 kts | 291° |
| 2026-05-06 07:46 | 39.88928 | -19.38033 | 32202 ft | 466 kts | 292° |
| 2026-05-06 07:47 | 39.90402 | -19.46169 | 32197 ft | 462 kts | 292° |
| 2026-05-06 07:47 | 39.91870 | -19.54295 | 32195 ft | 460 kts | 292° |
| 2026-05-06 07:48 | 39.93323 | -19.62369 | 32198 ft | 463 kts | 292° |
| 2026-05-06 07:48 | 39.94788 | -19.70552 | 32202 ft | 463 kts | 291° |
| 2026-05-06 07:49 | 39.96237 | -19.78682 | 32201 ft | 461 kts | 291° |
| 2026-05-06 07:49 | 39.97682 | -19.86810 | 32202 ft | 464 kts | 291° |
| 2026-05-06 07:50 | 39.99113 | -19.94921 | 32200 ft | 458 kts | 291° |
| 2026-05-06 07:50 | 40.00454 | -20.03099 | 32202 ft | 466 kts | 290° |
| 2026-05-06 07:51 | 40.01646 | -20.11337 | 32208 ft | 463 kts | 289° |
| 2026-05-06 07:51 | 40.02834 | -20.19587 | 32206 ft | 467 kts | 290° |
| 2026-05-06 07:52 | 40.04014 | -20.27849 | 32205 ft | 466 kts | 289° |
| 2026-05-06 07:52 | 40.05191 | -20.36126 | 32204 ft | 466 kts | 290° |
| 2026-05-06 07:53 | 40.06357 | -20.44383 | 32210 ft | 461 kts | 289° |
| 2026-05-06 07:53 | 40.07525 | -20.52676 | 32206 ft | 463 kts | 289° |
| 2026-05-06 07:54 | 40.08671 | -20.60873 | 32207 ft | 464 kts | 289° |
| 2026-05-06 07:54 | 40.09831 | -20.69198 | 32220 ft | 467 kts | 289° |
| 2026-05-06 07:55 | 40.10979 | -20.77505 | 32242 ft | 468 kts | 288° |
| 2026-05-06 07:55 | 40.12125 | -20.85831 | 32245 ft | 468 kts | 288° |
| 2026-05-06 07:56 | 40.13268 | -20.94187 | 32246 ft | 469 kts | 288° |
| 2026-05-06 07:56 | 40.14392 | -21.02453 | 32242 ft | 467 kts | 288° |
| 2026-05-06 07:57 | 40.15517 | -21.10770 | 32237 ft | 464 kts | 288° |
| 2026-05-06 07:57 | 40.16631 | -21.19053 | 32240 ft | 463 kts | 288° |
| 2026-05-06 07:58 | 40.17743 | -21.27355 | 32239 ft | 466 kts | 288° |
| 2026-05-06 07:58 | 40.18846 | -21.35649 | 32242 ft | 464 kts | 288° |
| 2026-05-06 07:59 | 40.19942 | -21.43936 | 32241 ft | 462 kts | 287° |
| 2026-05-06 07:59 | 40.21023 | -21.52150 | 32245 ft | 463 kts | 287° |
| 2026-05-06 08:00 | 40.22107 | -21.60440 | 32247 ft | 465 kts | 287° |
| 2026-05-06 08:00 | 40.23186 | -21.68737 | 32251 ft | 464 kts | 287° |
| 2026-05-06 08:01 | 40.24260 | -21.77046 | 32250 ft | 463 kts | 287° |
| 2026-05-06 08:01 | 40.25324 | -21.85331 | 32253 ft | 463 kts | 286° |
| 2026-05-06 08:02 | 40.26383 | -21.93614 | 32253 ft | 463 kts | 287° |
| 2026-05-06 08:02 | 40.27438 | -22.01923 | 32257 ft | 462 kts | 286° |
| 2026-05-06 08:03 | 40.28482 | -22.10198 | 32253 ft | 460 kts | 286° |
| 2026-05-06 08:03 | 40.29518 | -22.18444 | 32262 ft | 463 kts | 286° |
| 2026-05-06 08:04 | 40.30544 | -22.26672 | 32262 ft | 461 kts | 286° |
| 2026-05-06 08:04 | 40.31569 | -22.34937 | 32256 ft | 460 kts | 286° |
| 2026-05-06 08:05 | 40.32587 | -22.43192 | 32256 ft | 461 kts | 286° |
| 2026-05-06 08:05 | 40.33601 | -22.51477 | 32256 ft | 458 kts | 285° |
| 2026-05-06 08:06 | 40.34600 | -22.59678 | 32252 ft | 459 kts | 286° |
| 2026-05-06 08:06 | 40.35594 | -22.67890 | 32263 ft | 459 kts | 285° |
| 2026-05-06 08:07 | 40.36587 | -22.76149 | 32257 ft | 459 kts | 285° |
| 2026-05-06 08:07 | 40.37578 | -22.84437 | 32261 ft | 461 kts | 285° |
| 2026-05-06 08:08 | 40.38555 | -22.92665 | 32260 ft | 461 kts | 285° |
| 2026-05-06 08:08 | 40.39530 | -23.00930 | 32258 ft | 458 kts | 285° |
| 2026-05-06 08:09 | 40.40494 | -23.09148 | 32259 ft | 460 kts | 285° |
| 2026-05-06 08:09 | 40.41458 | -23.17410 | 32255 ft | 458 kts | 285° |
| 2026-05-06 08:10 | 40.42415 | -23.25669 | 32255 ft | 459 kts | 284° |
| 2026-05-06 08:10 | 40.43360 | -23.33895 | 32261 ft | 457 kts | 285° |
| 2026-05-06 08:11 | 40.44299 | -23.42110 | 32259 ft | 457 kts | 284° |
| 2026-05-06 08:11 | 40.45237 | -23.50361 | 32260 ft | 457 kts | 284° |
| 2026-05-06 08:12 | 40.46167 | -23.58598 | 32265 ft | 459 kts | 284° |
| 2026-05-06 08:12 | 40.47089 | -23.66830 | 32269 ft | 458 kts | 284° |
| 2026-05-06 08:13 | 40.48008 | -23.75079 | 32273 ft | 459 kts | 284° |
| 2026-05-06 08:13 | 40.48925 | -23.83372 | 32274 ft | 457 kts | 283° |
| 2026-05-06 08:14 | 40.49827 | -23.91581 | 32272 ft | 458 kts | 283° |
| 2026-05-06 08:14 | 40.50728 | -23.99840 | 32273 ft | 457 kts | 283° |
| 2026-05-06 08:15 | 40.51620 | -24.08064 | 32277 ft | 457 kts | 283° |
| 2026-05-06 08:15 | 40.52513 | -24.16359 | 32275 ft | 459 kts | 283° |
| 2026-05-06 08:16 | 40.53391 | -24.24571 | 32273 ft | 459 kts | 283° |
| 2026-05-06 08:16 | 40.54266 | -24.32820 | 32274 ft | 457 kts | 283° |
| 2026-05-06 08:17 | 40.55135 | -24.41060 | 32276 ft | 457 kts | 283° |
| 2026-05-06 08:17 | 40.55997 | -24.49288 | 32270 ft | 457 kts | 283° |
| 2026-05-06 08:18 | 40.56853 | -24.57527 | 32275 ft | 457 kts | 283° |
| 2026-05-06 08:18 | 40.57708 | -24.65802 | 32284 ft | 456 kts | 282° |
| 2026-05-06 08:19 | 40.58555 | -24.74071 | 32295 ft | 456 kts | 282° |
| 2026-05-06 08:19 | 40.59394 | -24.82310 | 32294 ft | 457 kts | 282° |
| 2026-05-06 08:20 | 40.60224 | -24.90537 | 32291 ft | 456 kts | 282° |
| 2026-05-06 08:20 | 40.61051 | -24.98779 | 32293 ft | 455 kts | 281° |
| 2026-05-06 08:21 | 40.61871 | -25.07014 | 32290 ft | 455 kts | 281° |
| 2026-05-06 08:21 | 40.62682 | -25.15222 | 32286 ft | 455 kts | 282° |
| 2026-05-06 08:22 | 40.63496 | -25.23518 | 32291 ft | 456 kts | 282° |
| 2026-05-06 08:22 | 40.64295 | -25.31734 | 32288 ft | 455 kts | 281° |
| 2026-05-06 08:23 | 40.65097 | -25.40030 | 32288 ft | 457 kts | 281° |
| 2026-05-06 08:23 | 40.65884 | -25.48249 | 32289 ft | 456 kts | 281° |
| 2026-05-06 08:24 | 40.66673 | -25.56537 | 32288 ft | 457 kts | 281° |
| 2026-05-06 08:24 | 40.67451 | -25.64778 | 32282 ft | 456 kts | 281° |
| 2026-05-06 08:25 | 40.68227 | -25.73063 | 32293 ft | 458 kts | 281° |
| 2026-05-06 08:25 | 40.69000 | -25.81376 | 32290 ft | 457 kts | 280° |
| 2026-05-06 08:26 | 40.69764 | -25.89674 | 32290 ft | 458 kts | 281° |
| 2026-05-06 08:26 | 40.70523 | -25.97964 | 32291 ft | 458 kts | 281° |
| 2026-05-06 08:27 | 40.71276 | -26.06268 | 32291 ft | 458 kts | 280° |
| 2026-05-06 08:27 | 40.72024 | -26.14580 | 32281 ft | 457 kts | 280° |
| 2026-05-06 08:28 | 40.72760 | -26.22836 | 32273 ft | 458 kts | 280° |
| 2026-05-06 08:28 | 40.73496 | -26.31145 | 32272 ft | 456 kts | 280° |
| 2026-05-06 08:29 | 40.74223 | -26.39427 | 32271 ft | 457 kts | 280° |
| 2026-05-06 08:29 | 40.74942 | -26.47695 | 32270 ft | 456 kts | 280° |
| 2026-05-06 08:30 | 40.75657 | -26.55972 | 32270 ft | 455 kts | 280° |
| 2026-05-06 08:30 | 40.76369 | -26.64297 | 32269 ft | 455 kts | 280° |
| 2026-05-06 08:31 | 40.77070 | -26.72556 | 32280 ft | 456 kts | 279° |
| 2026-05-06 08:31 | 40.77765 | -26.80821 | 32278 ft | 455 kts | 279° |
| 2026-05-06 08:32 | 40.78458 | -26.89132 | 32280 ft | 453 kts | 279° |
| 2026-05-06 08:32 | 40.79139 | -26.97377 | 32278 ft | 455 kts | 279° |
| 2026-05-06 08:33 | 40.79818 | -27.05665 | 32276 ft | 456 kts | 279° |
| 2026-05-06 08:33 | 40.80487 | -27.13913 | 32285 ft | 452 kts | 279° |
| 2026-05-06 08:34 | 40.81483 | -27.26311 | 32281 ft | 452 kts | 279° |
| 2026-05-06 08:35 | 40.82139 | -27.34574 | 32289 ft | 454 kts | 279° |
| 2026-05-06 08:35 | 40.82787 | -27.42815 | 32285 ft | 455 kts | 279° |
| 2026-05-06 08:36 | 40.83428 | -27.51049 | 32280 ft | 455 kts | 279° |
| 2026-05-06 08:36 | 40.84068 | -27.59340 | 32273 ft | 452 kts | 278° |
| 2026-05-06 08:37 | 40.84698 | -27.67585 | 32284 ft | 454 kts | 278° |
| 2026-05-06 08:37 | 40.85322 | -27.75821 | 32293 ft | 452 kts | 278° |
| 2026-05-06 08:38 | 40.85939 | -27.84055 | 32294 ft | 453 kts | 278° |
| 2026-05-06 08:38 | 40.86555 | -27.92346 | 32298 ft | 453 kts | 278° |
| 2026-05-06 08:39 | 40.87161 | -28.00577 | 32296 ft | 452 kts | 277° |
| 2026-05-06 08:39 | 40.87762 | -28.08835 | 32293 ft | 452 kts | 277° |
| 2026-05-06 08:40 | 40.88353 | -28.17031 | 32292 ft | 451 kts | 277° |
| 2026-05-06 08:40 | 40.88943 | -28.25305 | 32290 ft | 452 kts | 277° |
| 2026-05-06 08:41 | 40.89520 | -28.33476 | 32290 ft | 451 kts | 277° |
| 2026-05-06 08:41 | 40.90099 | -28.41743 | 32294 ft | 451 kts | 277° |
| 2026-05-06 08:42 | 40.90667 | -28.49961 | 32295 ft | 450 kts | 277° |
| 2026-05-06 08:42 | 40.91225 | -28.58106 | 32290 ft | 449 kts | 277° |
| 2026-05-06 08:43 | 40.91780 | -28.66303 | 32293 ft | 450 kts | 277° |
| 2026-05-06 08:43 | 40.92330 | -28.74499 | 32295 ft | 446 kts | 276° |
| 2026-05-06 08:44 | 40.92873 | -28.82696 | 32301 ft | 448 kts | 276° |
| 2026-05-06 08:44 | 40.93409 | -28.90862 | 32299 ft | 449 kts | 276° |
| 2026-05-06 08:45 | 40.93938 | -28.99015 | 32293 ft | 447 kts | 276° |
| 2026-05-06 08:45 | 40.94460 | -29.07145 | 32285 ft | 447 kts | 276° |
| 2026-05-06 08:46 | 40.94980 | -29.15339 | 32279 ft | 447 kts | 276° |
| 2026-05-06 08:46 | 40.95490 | -29.23458 | 32270 ft | 447 kts | 276° |
| 2026-05-06 08:47 | 40.95998 | -29.31666 | 32270 ft | 446 kts | 276° |
| 2026-05-06 08:47 | 40.96499 | -29.39821 | 32265 ft | 447 kts | 276° |
| 2026-05-06 08:48 | 40.96991 | -29.47939 | 32263 ft | 447 kts | 276° |
| 2026-05-06 08:48 | 40.97480 | -29.56106 | 32257 ft | 448 kts | 276° |
| 2026-05-06 08:49 | 40.97966 | -29.64323 | 32254 ft | 449 kts | 275° |
| 2026-05-06 08:49 | 40.98444 | -29.72504 | 32260 ft | 448 kts | 275° |
| 2026-05-06 08:50 | 40.98916 | -29.80677 | 32262 ft | 446 kts | 275° |
| 2026-05-06 08:50 | 40.99385 | -29.88894 | 32255 ft | 447 kts | 275° |
| 2026-05-06 08:51 | 40.99844 | -29.97038 | 32248 ft | 448 kts | 275° |
| 2026-05-06 08:51 | 41.00561 | -30.05222 | 32269 ft | 449 kts | 281° |
| 2026-05-06 08:52 | 41.01816 | -30.13267 | 32253 ft | 450 kts | 281° |
| 2026-05-06 08:52 | 41.03040 | -30.21390 | 32253 ft | 449 kts | 281° |
| 2026-05-06 08:53 | 41.04221 | -30.29451 | 32245 ft | 448 kts | 281° |
| 2026-05-06 08:53 | 41.05387 | -30.37546 | 32258 ft | 449 kts | 280° |
| 2026-05-06 08:54 | 41.06541 | -30.45647 | 32259 ft | 448 kts | 281° |
| 2026-05-06 08:54 | 41.07686 | -30.53749 | 32251 ft | 448 kts | 280° |
| 2026-05-06 08:55 | 41.08815 | -30.61802 | 32247 ft | 448 kts | 280° |
| 2026-05-06 08:55 | 41.09945 | -30.69907 | 32263 ft | 447 kts | 279° |
| 2026-05-06 08:56 | 41.11067 | -30.78001 | 32255 ft | 449 kts | 279° |
| 2026-05-06 08:56 | 41.12192 | -30.86165 | 32259 ft | 449 kts | 279° |
| 2026-05-06 08:57 | 41.13301 | -30.94251 | 32239 ft | 448 kts | 279° |
| 2026-05-06 08:57 | 41.14407 | -31.02376 | 32250 ft | 450 kts | 279° |
| 2026-05-06 08:58 | 41.15508 | -31.10495 | 32237 ft | 448 kts | 279° |
| 2026-05-06 08:58 | 41.16604 | -31.18625 | 32240 ft | 448 kts | 279° |
| 2026-05-06 08:59 | 41.17695 | -31.26757 | 32235 ft | 448 kts | 279° |
| 2026-05-06 08:59 | 41.18767 | -31.34806 | 32234 ft | 445 kts | 279° |
| 2026-05-06 09:00 | 41.19844 | -31.42932 | 32219 ft | 451 kts | 278° |
| 2026-05-06 09:00 | 41.20923 | -31.51113 | 32230 ft | 447 kts | 278° |
| 2026-05-06 09:01 | 41.21981 | -31.59190 | 32226 ft | 448 kts | 279° |
| 2026-05-06 09:01 | 41.23041 | -31.67323 | 32234 ft | 447 kts | 278° |
| 2026-05-06 09:02 | 41.24094 | -31.75444 | 32226 ft | 448 kts | 278° |
| 2026-05-06 09:02 | 41.25134 | -31.83518 | 32233 ft | 445 kts | 278° |
| 2026-05-06 09:03 | 41.26169 | -31.91599 | 32231 ft | 445 kts | 278° |
| 2026-05-06 09:03 | 41.27195 | -31.99652 | 32230 ft | 444 kts | 277° |
| 2026-05-06 09:04 | 41.28221 | -32.07755 | 32223 ft | 443 kts | 278° |
| 2026-05-06 09:04 | 41.29236 | -32.15825 | 32222 ft | 445 kts | 278° |
| 2026-05-06 09:05 | 41.30242 | -32.23866 | 32221 ft | 444 kts | 277° |
| 2026-05-06 09:05 | 41.31243 | -32.31910 | 32215 ft | 445 kts | 277° |
| 2026-05-06 09:06 | 41.32244 | -32.40001 | 32212 ft | 443 kts | 277° |
| 2026-05-06 09:06 | 41.33239 | -32.48089 | 32207 ft | 443 kts | 277° |
| 2026-05-06 09:07 | 41.34220 | -32.56121 | 32207 ft | 442 kts | 278° |
| 2026-05-06 09:07 | 41.35202 | -32.64212 | 32194 ft | 443 kts | 278° |
| 2026-05-06 09:08 | 41.36176 | -32.72272 | 32214 ft | 442 kts | 277° |
| 2026-05-06 09:08 | 41.37142 | -32.80322 | 32205 ft | 441 kts | 277° |
| 2026-05-06 09:09 | 41.38095 | -32.88313 | 32202 ft | 441 kts | 277° |
| 2026-05-06 09:09 | 41.39046 | -32.96331 | 32200 ft | 439 kts | 277° |
| 2026-05-06 09:10 | 41.39993 | -33.04369 | 32200 ft | 439 kts | 277° |
| 2026-05-06 09:10 | 41.40929 | -33.12366 | 32199 ft | 440 kts | 277° |
| 2026-05-06 09:11 | 41.41864 | -33.20401 | 32193 ft | 439 kts | 277° |
| 2026-05-06 09:11 | 41.42791 | -33.28421 | 32194 ft | 439 kts | 277° |
| 2026-05-06 09:12 | 41.43712 | -33.36437 | 32190 ft | 440 kts | 276° |
| 2026-05-06 09:12 | 41.44629 | -33.44470 | 32187 ft | 439 kts | 276° |
| 2026-05-06 09:13 | 41.45540 | -33.52499 | 32191 ft | 440 kts | 277° |
| 2026-05-06 09:13 | 41.46446 | -33.60530 | 32187 ft | 440 kts | 276° |
| 2026-05-06 09:14 | 41.47344 | -33.68549 | 32208 ft | 438 kts | 276° |
| 2026-05-06 09:14 | 41.48234 | -33.76551 | 32206 ft | 437 kts | 276° |
| 2026-05-06 09:15 | 41.49123 | -33.84589 | 32204 ft | 439 kts | 276° |
| 2026-05-06 09:15 | 41.50005 | -33.92622 | 32202 ft | 437 kts | 276° |
| 2026-05-06 09:16 | 41.50875 | -34.00597 | 32202 ft | 437 kts | 276° |
| 2026-05-06 09:16 | 41.51741 | -34.08585 | 32205 ft | 438 kts | 276° |
| 2026-05-06 09:17 | 41.52604 | -34.16604 | 32208 ft | 437 kts | 275° |
| 2026-05-06 09:17 | 41.53464 | -34.24650 | 32200 ft | 437 kts | 275° |
| 2026-05-06 09:18 | 41.54314 | -34.32659 | 32204 ft | 438 kts | 276° |
| 2026-05-06 09:18 | 41.55156 | -34.40635 | 32204 ft | 436 kts | 276° |
| 2026-05-06 09:19 | 41.55992 | -34.48611 | 32203 ft | 436 kts | 275° |
| 2026-05-06 09:19 | 41.56824 | -34.56615 | 32207 ft | 436 kts | 275° |
| 2026-05-06 09:20 | 41.57647 | -34.64575 | 32204 ft | 436 kts | 275° |
| 2026-05-06 09:20 | 41.58468 | -34.72577 | 32221 ft | 436 kts | 275° |
| 2026-05-06 09:21 | 41.59283 | -34.80569 | 32232 ft | 434 kts | 275° |
| 2026-05-06 09:21 | 41.60090 | -34.88547 | 32233 ft | 433 kts | 275° |
| 2026-05-06 09:22 | 41.60886 | -34.96482 | 32226 ft | 435 kts | 275° |
| 2026-05-06 09:22 | 41.61684 | -35.04474 | 32224 ft | 432 kts | 275° |
| 2026-05-06 09:23 | 41.62470 | -35.12411 | 32226 ft | 432 kts | 275° |
| 2026-05-06 09:23 | 41.63250 | -35.20339 | 32233 ft | 431 kts | 275° |
| 2026-05-06 09:24 | 41.64019 | -35.28220 | 32230 ft | 431 kts | 274° |
| 2026-05-06 09:24 | 41.64787 | -35.36153 | 32241 ft | 429 kts | 275° |
| 2026-05-06 09:25 | 41.65547 | -35.44049 | 32244 ft | 429 kts | 275° |
| 2026-05-06 09:25 | 41.66297 | -35.51908 | 32250 ft | 429 kts | 275° |
| 2026-05-06 09:26 | 41.67044 | -35.59795 | 32252 ft | 428 kts | 275° |
| 2026-05-06 09:26 | 41.67789 | -35.67707 | 32268 ft | 427 kts | 274° |
| 2026-05-06 09:27 | 41.68520 | -35.75529 | 32266 ft | 427 kts | 274° |
| 2026-05-06 09:27 | 41.69247 | -35.83382 | 32265 ft | 426 kts | 274° |
| 2026-05-06 09:28 | 41.69974 | -35.91283 | 32271 ft | 428 kts | 274° |
| 2026-05-06 09:28 | 41.70694 | -35.99173 | 32271 ft | 427 kts | 274° |
| 2026-05-06 09:29 | 41.71401 | -36.06980 | 32273 ft | 426 kts | 274° |
| 2026-05-06 09:29 | 41.72109 | -36.14854 | 32264 ft | 427 kts | 274° |
| 2026-05-06 09:30 | 41.72812 | -36.22743 | 32274 ft | 427 kts | 274° |
| 2026-05-06 09:30 | 41.73508 | -36.30614 | 32273 ft | 427 kts | 274° |
| 2026-05-06 09:31 | 41.74195 | -36.38437 | 32273 ft | 425 kts | 275° |
| 2026-05-06 09:31 | 41.74882 | -36.46340 | 32275 ft | 427 kts | 275° |
| 2026-05-06 09:32 | 41.75561 | -36.54194 | 32276 ft | 427 kts | 274° |
| 2026-05-06 09:32 | 41.76235 | -36.62064 | 32273 ft | 428 kts | 274° |
| 2026-05-06 09:33 | 41.76905 | -36.69954 | 32288 ft | 427 kts | 274° |
| 2026-05-06 09:33 | 41.77570 | -36.77840 | 32299 ft | 429 kts | 274° |
| 2026-05-06 09:34 | 41.78227 | -36.85701 | 32301 ft | 427 kts | 274° |
| 2026-05-06 09:34 | 41.78882 | -36.93610 | 32304 ft | 427 kts | 274° |
| 2026-05-06 09:35 | 41.79532 | -37.01525 | 32309 ft | 429 kts | 275° |
| 2026-05-06 09:35 | 41.80177 | -37.09438 | 32316 ft | 429 kts | 275° |
| 2026-05-06 09:36 | 41.80817 | -37.17376 | 32321 ft | 430 kts | 275° |
| 2026-05-06 09:36 | 41.81453 | -37.25316 | 32310 ft | 429 kts | 274° |
| 2026-05-06 09:37 | 41.82087 | -37.33303 | 32302 ft | 432 kts | 274° |
| 2026-05-06 09:37 | 41.82714 | -37.41285 | 32307 ft | 432 kts | 275° |
| 2026-05-06 09:38 | 41.83336 | -37.49265 | 32313 ft | 433 kts | 275° |
| 2026-05-06 09:38 | 41.83952 | -37.57243 | 32303 ft | 432 kts | 275° |
| 2026-05-06 09:39 | 41.84566 | -37.65272 | 32313 ft | 434 kts | 275° |
| 2026-05-06 09:39 | 41.85173 | -37.73271 | 32319 ft | 433 kts | 274° |
| 2026-05-06 09:40 | 41.85777 | -37.81310 | 32322 ft | 437 kts | 275° |
| 2026-05-06 09:40 | 41.86675 | -37.93419 | 32316 ft | 435 kts | 275° |
| 2026-05-06 09:41 | 41.87264 | -38.01459 | 32317 ft | 437 kts | 275° |
| 2026-05-06 09:41 | 41.87851 | -38.09546 | 32322 ft | 438 kts | 275° |
| 2026-05-06 09:42 | 41.88431 | -38.17607 | 32319 ft | 435 kts | 275° |
| 2026-05-06 09:42 | 41.89009 | -38.25729 | 32323 ft | 438 kts | 275° |
| 2026-05-06 09:43 | 41.89576 | -38.33780 | 32320 ft | 438 kts | 276° |
| 2026-05-06 09:43 | 41.90142 | -38.41906 | 32323 ft | 436 kts | 275° |
| 2026-05-06 09:44 | 41.90698 | -38.49948 | 32337 ft | 436 kts | 275° |
| 2026-05-06 09:44 | 41.91249 | -38.58025 | 32337 ft | 435 kts | 275° |
| 2026-05-06 09:45 | 41.91795 | -38.66100 | 32344 ft | 437 kts | 275° |
| 2026-05-06 09:45 | 41.92336 | -38.74188 | 32355 ft | 438 kts | 275° |
| 2026-05-06 09:46 | 41.92870 | -38.82260 | 32361 ft | 434 kts | 275° |
| 2026-05-06 09:46 | 41.93399 | -38.90345 | 32357 ft | 436 kts | 276° |
| 2026-05-06 09:47 | 41.93921 | -38.98401 | 32356 ft | 435 kts | 276° |
| 2026-05-06 09:47 | 41.94440 | -39.06506 | 32356 ft | 438 kts | 276° |
| 2026-05-06 09:48 | 41.94955 | -39.14639 | 32356 ft | 439 kts | 275° |
| 2026-05-06 09:48 | 41.95463 | -39.22750 | 32359 ft | 438 kts | 276° |
| 2026-05-06 09:49 | 41.95964 | -39.30857 | 32361 ft | 436 kts | 276° |
| 2026-05-06 09:49 | 41.96461 | -39.38967 | 32359 ft | 436 kts | 276° |
| 2026-05-06 09:50 | 41.96953 | -39.47106 | 32360 ft | 438 kts | 276° |
| 2026-05-06 09:50 | 41.97436 | -39.55199 | 32362 ft | 437 kts | 276° |
| 2026-05-06 09:51 | 41.97917 | -39.63335 | 32368 ft | 434 kts | 276° |
| 2026-05-06 09:51 | 41.98386 | -39.71389 | 32394 ft | 437 kts | 276° |
| 2026-05-06 09:52 | 41.98857 | -39.79557 | 32393 ft | 437 kts | 276° |
| 2026-05-06 09:52 | 41.99318 | -39.87666 | 32393 ft | 438 kts | 276° |
| 2026-05-06 09:53 | 41.99776 | -39.95806 | 32395 ft | 440 kts | 276° |
| 2026-05-06 09:53 | 42.00686 | -40.03852 | 32390 ft | 437 kts | 287° |
| 2026-05-06 09:54 | 42.02722 | -40.11584 | 32380 ft | 438 kts | 290° |
| 2026-05-06 09:54 | 42.04742 | -40.19307 | 32381 ft | 439 kts | 289° |
| 2026-05-06 09:55 | 42.06717 | -40.27060 | 32376 ft | 438 kts | 289° |
| 2026-05-06 09:55 | 42.08654 | -40.34775 | 32387 ft | 439 kts | 289° |
| 2026-05-06 09:56 | 42.10596 | -40.42588 | 32388 ft | 441 kts | 289° |
| 2026-05-06 09:56 | 42.12517 | -40.50367 | 32393 ft | 441 kts | 289° |
| 2026-05-06 09:57 | 42.14437 | -40.58178 | 32392 ft | 440 kts | 289° |
| 2026-05-06 09:57 | 42.16353 | -40.66009 | 32394 ft | 440 kts | 289° |
| 2026-05-06 09:58 | 42.18274 | -40.73885 | 32402 ft | 443 kts | 289° |
| 2026-05-06 09:58 | 42.20181 | -40.81736 | 32409 ft | 444 kts | 289° |
| 2026-05-06 09:59 | 42.22086 | -40.89603 | 32423 ft | 441 kts | 289° |
| 2026-05-06 09:59 | 42.23981 | -40.97459 | 32417 ft | 443 kts | 289° |
| 2026-05-06 10:00 | 42.25879 | -41.05356 | 32407 ft | 443 kts | 289° |
| 2026-05-06 10:00 | 42.27778 | -41.13282 | 32426 ft | 445 kts | 289° |
| 2026-05-06 10:01 | 42.29673 | -41.21221 | 32414 ft | 445 kts | 289° |
| 2026-05-06 10:01 | 42.31546 | -41.29091 | 32408 ft | 445 kts | 289° |
| 2026-05-06 10:02 | 42.33435 | -41.37061 | 32418 ft | 445 kts | 289° |
| 2026-05-06 10:02 | 42.35312 | -41.45004 | 32425 ft | 445 kts | 289° |
| 2026-05-06 10:03 | 42.37190 | -41.52985 | 32416 ft | 445 kts | 290° |
| 2026-05-06 10:03 | 42.39058 | -41.60947 | 32407 ft | 446 kts | 290° |
| 2026-05-06 10:04 | 42.40933 | -41.68970 | 32421 ft | 449 kts | 289° |
| 2026-05-06 10:04 | 42.42801 | -41.76989 | 32440 ft | 449 kts | 290° |
| 2026-05-06 10:05 | 42.44658 | -41.84993 | 32399 ft | 447 kts | 289° |
| 2026-05-06 10:05 | 42.46514 | -41.93017 | 32419 ft | 450 kts | 289° |
| 2026-05-06 10:06 | 42.48371 | -42.01081 | 32426 ft | 449 kts | 290° |
| 2026-05-06 10:06 | 42.50213 | -42.09100 | 32424 ft | 448 kts | 290° |
| 2026-05-06 10:07 | 42.52060 | -42.17173 | 32421 ft | 451 kts | 289° |
| 2026-05-06 10:07 | 42.53902 | -42.25259 | 32440 ft | 451 kts | 290° |
| 2026-05-06 10:08 | 42.55745 | -42.33376 | 32419 ft | 452 kts | 290° |
| 2026-05-06 10:08 | 42.57576 | -42.41473 | 32413 ft | 451 kts | 290° |
| 2026-05-06 10:09 | 42.59411 | -42.49612 | 32423 ft | 454 kts | 290° |
| 2026-05-06 10:09 | 42.61245 | -42.57779 | 32405 ft | 453 kts | 290° |
| 2026-05-06 10:10 | 42.63071 | -42.65944 | 32422 ft | 455 kts | 289° |
| 2026-05-06 10:10 | 42.64898 | -42.74142 | 32425 ft | 454 kts | 290° |
| 2026-05-06 10:11 | 42.66728 | -42.82384 | 32427 ft | 455 kts | 289° |
| 2026-05-06 10:11 | 42.68530 | -42.90532 | 32437 ft | 455 kts | 290° |
| 2026-05-06 10:12 | 42.70346 | -42.98772 | 32429 ft | 457 kts | 290° |
| 2026-05-06 10:12 | 42.72162 | -43.07046 | 32425 ft | 458 kts | 289° |
| 2026-05-06 10:13 | 42.73958 | -43.15263 | 32429 ft | 455 kts | 289° |
| 2026-05-06 10:13 | 42.75761 | -43.23541 | 32431 ft | 458 kts | 289° |
| 2026-05-06 10:14 | 42.77563 | -43.31847 | 32435 ft | 459 kts | 289° |
| 2026-05-06 10:14 | 42.79353 | -43.40130 | 32428 ft | 458 kts | 290° |
| 2026-05-06 10:15 | 42.81145 | -43.48456 | 32427 ft | 459 kts | 289° |
| 2026-05-06 10:15 | 42.82933 | -43.56797 | 32433 ft | 460 kts | 290° |
| 2026-05-06 10:16 | 42.84709 | -43.65114 | 32415 ft | 462 kts | 289° |
| 2026-05-06 10:16 | 42.86488 | -43.73478 | 32438 ft | 460 kts | 289° |
| 2026-05-06 10:17 | 42.88268 | -43.81881 | 32443 ft | 463 kts | 289° |
| 2026-05-06 10:17 | 42.90041 | -43.90281 | 32426 ft | 464 kts | 289° |
| 2026-05-06 10:18 | 42.91808 | -43.98694 | 32442 ft | 463 kts | 289° |
| 2026-05-06 10:18 | 42.93569 | -44.07105 | 32435 ft | 463 kts | 289° |
| 2026-05-06 10:19 | 42.95335 | -44.15577 | 32438 ft | 462 kts | 289° |
| 2026-05-06 10:19 | 42.97084 | -44.24004 | 32434 ft | 465 kts | 289° |
| 2026-05-06 10:20 | 42.98831 | -44.32458 | 32439 ft | 463 kts | 289° |
| 2026-05-06 10:20 | 43.00576 | -44.40930 | 32433 ft | 466 kts | 289° |
| 2026-05-06 10:21 | 43.02316 | -44.49415 | 32427 ft | 465 kts | 289° |
| 2026-05-06 10:21 | 43.04053 | -44.57924 | 32434 ft | 467 kts | 289° |
| 2026-05-06 10:22 | 43.05783 | -44.66435 | 32429 ft | 468 kts | 288° |
| 2026-05-06 10:22 | 43.07515 | -44.74989 | 32438 ft | 468 kts | 288° |
| 2026-05-06 10:23 | 43.09240 | -44.83548 | 32437 ft | 467 kts | 288° |
| 2026-05-06 10:23 | 43.10963 | -44.92128 | 32450 ft | 470 kts | 288° |
| 2026-05-06 10:24 | 43.12676 | -45.00704 | 32448 ft | 468 kts | 288° |
| 2026-05-06 10:24 | 43.14383 | -45.09282 | 32437 ft | 467 kts | 288° |
| 2026-05-06 10:25 | 43.16077 | -45.17828 | 32442 ft | 468 kts | 288° |
| 2026-05-06 10:25 | 43.17767 | -45.26395 | 32448 ft | 469 kts | 288° |
| 2026-05-06 10:26 | 43.19462 | -45.35021 | 32458 ft | 469 kts | 288° |
| 2026-05-06 10:26 | 43.21138 | -45.43590 | 32450 ft | 469 kts | 288° |
| 2026-05-06 10:27 | 43.22815 | -45.52206 | 32451 ft | 469 kts | 288° |
| 2026-05-06 10:27 | 43.24490 | -45.60844 | 32454 ft | 470 kts | 288° |
| 2026-05-06 10:28 | 43.26156 | -45.69473 | 32456 ft | 470 kts | 287° |
| 2026-05-06 10:28 | 43.27816 | -45.78113 | 32451 ft | 471 kts | 287° |
| 2026-05-06 10:29 | 43.29482 | -45.86821 | 32460 ft | 472 kts | 287° |
| 2026-05-06 10:29 | 43.31139 | -45.95526 | 32456 ft | 472 kts | 287° |
| 2026-05-06 10:30 | 43.32781 | -46.04184 | 32461 ft | 473 kts | 287° |
| 2026-05-06 10:30 | 43.34423 | -46.12887 | 32456 ft | 471 kts | 287° |
| 2026-05-06 10:31 | 43.36055 | -46.21574 | 32455 ft | 473 kts | 287° |
| 2026-05-06 10:31 | 43.37682 | -46.30275 | 32449 ft | 474 kts | 287° |
| 2026-05-06 10:32 | 43.39310 | -46.39021 | 32444 ft | 472 kts | 287° |
| 2026-05-06 10:32 | 43.40931 | -46.47771 | 32444 ft | 473 kts | 287° |
| 2026-05-06 10:33 | 43.42545 | -46.56520 | 32447 ft | 476 kts | 287° |
| 2026-05-06 10:33 | 43.44160 | -46.65320 | 32447 ft | 475 kts | 286° |
| 2026-05-06 10:34 | 43.45758 | -46.74065 | 32454 ft | 475 kts | 286° |
| 2026-05-06 10:34 | 43.47359 | -46.82872 | 32452 ft | 474 kts | 286° |
| 2026-05-06 10:35 | 43.48944 | -46.91628 | 32449 ft | 476 kts | 285° |
| 2026-05-06 10:35 | 43.50528 | -47.00423 | 32438 ft | 476 kts | 286° |
| 2026-05-06 10:36 | 43.52112 | -47.09260 | 32438 ft | 476 kts | 285° |
| 2026-05-06 10:36 | 43.53690 | -47.18104 | 32440 ft | 476 kts | 285° |
| 2026-05-06 10:37 | 43.55260 | -47.26951 | 32434 ft | 477 kts | 286° |
| 2026-05-06 10:37 | 43.56819 | -47.35775 | 32436 ft | 476 kts | 286° |
| 2026-05-06 10:38 | 43.58377 | -47.44637 | 32444 ft | 478 kts | 285° |
| 2026-05-06 10:38 | 43.59936 | -47.53550 | 32442 ft | 477 kts | 285° |
| 2026-05-06 10:39 | 43.61478 | -47.62409 | 32449 ft | 480 kts | 285° |
| 2026-05-06 10:39 | 43.63020 | -47.71314 | 32454 ft | 478 kts | 285° |
| 2026-05-06 10:40 | 43.64560 | -47.80249 | 32450 ft | 480 kts | 285° |
| 2026-05-06 10:40 | 43.66085 | -47.89140 | 32448 ft | 480 kts | 284° |
| 2026-05-06 10:41 | 43.67618 | -47.98127 | 32450 ft | 480 kts | 285° |
| 2026-05-06 10:41 | 43.69134 | -48.07060 | 32447 ft | 480 kts | 285° |
| 2026-05-06 10:42 | 43.70644 | -48.15999 | 32445 ft | 480 kts | 285° |
| 2026-05-06 10:42 | 43.72156 | -48.24999 | 32448 ft | 481 kts | 284° |
| 2026-05-06 10:43 | 43.73651 | -48.33944 | 32448 ft | 481 kts | 285° |
| 2026-05-06 10:44 | 43.75890 | -48.47428 | 32446 ft | 482 kts | 284° |
| 2026-05-06 10:44 | 43.77374 | -48.56423 | 32446 ft | 483 kts | 284° |
| 2026-05-06 10:45 | 43.78854 | -48.65445 | 32445 ft | 481 kts | 284° |
| 2026-05-06 10:45 | 43.80331 | -48.74493 | 32448 ft | 482 kts | 284° |
| 2026-05-06 10:46 | 43.81790 | -48.83477 | 32433 ft | 483 kts | 284° |
| 2026-05-06 10:46 | 43.83258 | -48.92564 | 32429 ft | 482 kts | 283° |
| 2026-05-06 10:47 | 43.84702 | -49.01553 | 32425 ft | 484 kts | 283° |
| 2026-05-06 10:47 | 43.86157 | -49.10663 | 32432 ft | 484 kts | 283° |
| 2026-05-06 10:48 | 43.87598 | -49.19732 | 32424 ft | 484 kts | 283° |
| 2026-05-06 10:48 | 43.89037 | -49.28830 | 32424 ft | 484 kts | 283° |
| 2026-05-06 10:49 | 43.90465 | -49.37923 | 32417 ft | 485 kts | 283° |
| 2026-05-06 10:49 | 43.91884 | -49.46998 | 32418 ft | 484 kts | 283° |
| 2026-05-06 10:50 | 43.93302 | -49.56124 | 32415 ft | 486 kts | 283° |
| 2026-05-06 10:50 | 43.94717 | -49.65278 | 32421 ft | 486 kts | 283° |
| 2026-05-06 10:51 | 43.96123 | -49.74428 | 32429 ft | 484 kts | 283° |
| 2026-05-06 10:51 | 43.97518 | -49.83553 | 32423 ft | 486 kts | 283° |
| 2026-05-06 10:52 | 43.98910 | -49.92714 | 32422 ft | 487 kts | 283° |
| 2026-05-06 10:52 | 43.99987 | -50.01985 | 32420 ft | 489 kts | 276° |
| 2026-05-06 10:53 | 44.00549 | -50.11311 | 32434 ft | 489 kts | 276° |
| 2026-05-06 10:53 | 44.01074 | -50.20713 | 32430 ft | 489 kts | 275° |
| 2026-05-06 10:54 | 44.01575 | -50.30096 | 32426 ft | 488 kts | 275° |
| 2026-05-06 10:54 | 44.02061 | -50.39465 | 32416 ft | 490 kts | 275° |
| 2026-05-06 10:55 | 44.02537 | -50.48885 | 32411 ft | 489 kts | 275° |
| 2026-05-06 10:55 | 44.03001 | -50.58248 | 32413 ft | 490 kts | 275° |
| 2026-05-06 10:56 | 44.03459 | -50.67686 | 32409 ft | 490 kts | 274° |
| 2026-05-06 10:56 | 44.03907 | -50.77095 | 32413 ft | 491 kts | 274° |
| 2026-05-06 10:57 | 44.04348 | -50.86515 | 32414 ft | 491 kts | 274° |
| 2026-05-06 10:57 | 44.04783 | -50.95978 | 32416 ft | 490 kts | 274° |
| 2026-05-06 10:58 | 44.05206 | -51.05375 | 32412 ft | 489 kts | 274° |
| 2026-05-06 10:58 | 44.05622 | -51.14766 | 32413 ft | 491 kts | 274° |
| 2026-05-06 10:59 | 44.06033 | -51.24240 | 32414 ft | 491 kts | 274° |
| 2026-05-06 10:59 | 44.06435 | -51.33682 | 32406 ft | 491 kts | 274° |
| 2026-05-06 11:00 | 44.06828 | -51.43087 | 32410 ft | 492 kts | 274° |
| 2026-05-06 11:00 | 44.07216 | -51.52539 | 32402 ft | 491 kts | 274° |
| 2026-05-06 11:01 | 44.07596 | -51.62030 | 32409 ft | 492 kts | 273° |
| 2026-05-06 11:01 | 44.07966 | -51.71447 | 32407 ft | 491 kts | 272° |
| 2026-05-06 11:02 | 44.08331 | -51.80928 | 32392 ft | 492 kts | 272° |
| 2026-05-06 11:02 | 44.08684 | -51.90343 | 32401 ft | 492 kts | 272° |
| 2026-05-06 11:03 | 44.09034 | -51.99831 | 32394 ft | 492 kts | 272° |
| 2026-05-06 11:03 | 44.09374 | -52.09277 | 32391 ft | 492 kts | 272° |
| 2026-05-06 11:04 | 44.09707 | -52.18756 | 32395 ft | 491 kts | 272° |
| 2026-05-06 11:04 | 44.10032 | -52.28245 | 32396 ft | 492 kts | 272° |
| 2026-05-06 11:05 | 44.10350 | -52.37757 | 32389 ft | 492 kts | 272° |
| 2026-05-06 11:05 | 44.10659 | -52.47215 | 32382 ft | 492 kts | 272° |
| 2026-05-06 11:06 | 44.10961 | -52.56715 | 32385 ft | 492 kts | 272° |
| 2026-05-06 11:06 | 44.11253 | -52.66144 | 32380 ft | 493 kts | 271° |
| 2026-05-06 11:07 | 44.11541 | -52.75690 | 32384 ft | 492 kts | 271° |
| 2026-05-06 11:07 | 44.11821 | -52.85107 | 32375 ft | 493 kts | 271° |
| 2026-05-06 11:08 | 44.12132 | -52.94640 | 32378 ft | 492 kts | 271° |
| 2026-05-06 11:08 | 44.12431 | -53.04066 | 32385 ft | 493 kts | 271° |
| 2026-05-06 11:09 | 44.12723 | -53.13576 | 32390 ft | 493 kts | 271° |
| 2026-05-06 11:09 | 44.13009 | -53.23124 | 32387 ft | 492 kts | 271° |
| 2026-05-06 11:10 | 44.13285 | -53.32622 | 32379 ft | 493 kts | 271° |
| 2026-05-06 11:10 | 44.13552 | -53.42092 | 32371 ft | 492 kts | 271° |
| 2026-05-06 11:11 | 44.13811 | -53.51541 | 32364 ft | 491 kts | 271° |
| 2026-05-06 11:11 | 44.14062 | -53.60995 | 32364 ft | 490 kts | 271° |
| 2026-05-06 11:12 | 44.14305 | -53.70458 | 32368 ft | 490 kts | 270° |
| 2026-05-06 11:12 | 44.14539 | -53.79890 | 32364 ft | 491 kts | 270° |
| 2026-05-06 11:13 | 44.14767 | -53.89365 | 32358 ft | 491 kts | 270° |
| 2026-05-06 11:13 | 44.14987 | -53.98844 | 32353 ft | 491 kts | 270° |
| 2026-05-06 11:14 | 44.15200 | -54.08349 | 32344 ft | 491 kts | 270° |
| 2026-05-06 11:14 | 44.15404 | -54.17795 | 32350 ft | 491 kts | 270° |
| 2026-05-06 11:15 | 44.15599 | -54.27228 | 32344 ft | 490 kts | 270° |
| 2026-05-06 11:15 | 44.15787 | -54.36653 | 32344 ft | 491 kts | 270° |
| 2026-05-06 11:16 | 44.15968 | -54.46144 | 32351 ft | 490 kts | 270° |
| 2026-05-06 11:16 | 44.16140 | -54.55546 | 32347 ft | 490 kts | 270° |
| 2026-05-06 11:17 | 44.16304 | -54.64993 | 32347 ft | 490 kts | 270° |
| 2026-05-06 11:17 | 44.16461 | -54.74433 | 32356 ft | 489 kts | 269° |
| 2026-05-06 11:18 | 44.16611 | -54.83916 | 32353 ft | 490 kts | 269° |
| 2026-05-06 11:18 | 44.16321 | -54.93324 | 32347 ft | 488 kts | 263° |
| 2026-05-06 11:19 | 44.15671 | -55.02678 | 32335 ft | 486 kts | 262° |
| 2026-05-06 11:19 | 44.15013 | -55.11976 | 32334 ft | 487 kts | 262° |
| 2026-05-06 11:20 | 44.14340 | -55.21355 | 32333 ft | 487 kts | 262° |
| 2026-05-06 11:20 | 44.13662 | -55.30691 | 32328 ft | 488 kts | 262° |
| 2026-05-06 11:21 | 44.12976 | -55.40028 | 32329 ft | 486 kts | 262° |
| 2026-05-06 11:21 | 44.12283 | -55.49362 | 32331 ft | 486 kts | 262° |
| 2026-05-06 11:22 | 44.11585 | -55.58642 | 32332 ft | 485 kts | 262° |
| 2026-05-06 11:22 | 44.10877 | -55.67966 | 32332 ft | 486 kts | 262° |
| 2026-05-06 11:23 | 44.10160 | -55.77304 | 32328 ft | 486 kts | 262° |
| 2026-05-06 11:23 | 44.09439 | -55.86582 | 32329 ft | 486 kts | 262° |
| 2026-05-06 11:24 | 44.08706 | -55.95923 | 32332 ft | 487 kts | 262° |
| 2026-05-06 11:24 | 44.07969 | -56.05225 | 32332 ft | 485 kts | 262° |
| 2026-05-06 11:25 | 44.07225 | -56.14511 | 32327 ft | 485 kts | 262° |
| 2026-05-06 11:25 | 44.06470 | -56.23823 | 32325 ft | 485 kts | 262° |
| 2026-05-06 11:26 | 44.05714 | -56.33070 | 32319 ft | 485 kts | 262° |
| 2026-05-06 11:26 | 44.04947 | -56.42355 | 32327 ft | 484 kts | 262° |
| 2026-05-06 11:27 | 44.04171 | -56.51657 | 32320 ft | 485 kts | 262° |
| 2026-05-06 11:27 | 44.03391 | -56.60904 | 32320 ft | 485 kts | 262° |
| 2026-05-06 11:28 | 44.02599 | -56.70208 | 32324 ft | 484 kts | 261° |
| 2026-05-06 11:28 | 44.01804 | -56.79466 | 32313 ft | 485 kts | 261° |
| 2026-05-06 11:29 | 44.01000 | -56.88733 | 32300 ft | 485 kts | 261° |
| 2026-05-06 11:29 | 44.00190 | -56.97972 | 32298 ft | 485 kts | 261° |
| 2026-05-06 11:30 | 43.99355 | -57.07267 | 32295 ft | 484 kts | 261° |
| 2026-05-06 11:30 | 43.98510 | -57.16460 | 32297 ft | 484 kts | 261° |
| 2026-05-06 11:31 | 43.97654 | -57.25707 | 32292 ft | 484 kts | 261° |
| 2026-05-06 11:31 | 43.96790 | -57.34967 | 32288 ft | 483 kts | 261° |
| 2026-05-06 11:32 | 43.95924 | -57.44157 | 32282 ft | 484 kts | 261° |
| 2026-05-06 11:32 | 43.95048 | -57.53377 | 32288 ft | 484 kts | 261° |
| 2026-05-06 11:33 | 43.94165 | -57.62593 | 32293 ft | 484 kts | 261° |
| 2026-05-06 11:33 | 43.93270 | -57.71856 | 32292 ft | 485 kts | 261° |
| 2026-05-06 11:34 | 43.92372 | -57.81069 | 32301 ft | 484 kts | 261° |
| 2026-05-06 11:34 | 43.91462 | -57.90328 | 32289 ft | 485 kts | 261° |
| 2026-05-06 11:35 | 43.90548 | -57.99552 | 32295 ft | 484 kts | 261° |
| 2026-05-06 11:35 | 43.89629 | -58.08743 | 32301 ft | 484 kts | 261° |
| 2026-05-06 11:36 | 43.88697 | -58.17985 | 32292 ft | 485 kts | 261° |
| 2026-05-06 11:36 | 43.87761 | -58.27194 | 32294 ft | 485 kts | 261° |
| 2026-05-06 11:37 | 43.86817 | -58.36401 | 32288 ft | 486 kts | 261° |
| 2026-05-06 11:37 | 43.85866 | -58.45604 | 32280 ft | 486 kts | 261° |
| 2026-05-06 11:38 | 43.84902 | -58.54863 | 32285 ft | 485 kts | 262° |
| 2026-05-06 11:38 | 43.83935 | -58.64068 | 32284 ft | 485 kts | 262° |
| 2026-05-06 11:39 | 43.82961 | -58.73276 | 32279 ft | 484 kts | 261° |
| 2026-05-06 11:39 | 43.81974 | -58.82528 | 32281 ft | 486 kts | 261° |
| 2026-05-06 11:40 | 43.80984 | -58.91739 | 32284 ft | 487 kts | 261° |
| 2026-05-06 11:40 | 43.79983 | -59.00972 | 32281 ft | 486 kts | 261° |
| 2026-05-06 11:41 | 43.78978 | -59.10178 | 32282 ft | 487 kts | 261° |
| 2026-05-06 11:41 | 43.77957 | -59.19456 | 32268 ft | 487 kts | 262° |
| 2026-05-06 11:42 | 43.76939 | -59.28641 | 32263 ft | 487 kts | 262° |
| 2026-05-06 11:42 | 43.75908 | -59.37869 | 32254 ft | 487 kts | 262° |
| 2026-05-06 11:43 | 43.74869 | -59.47094 | 32266 ft | 486 kts | 262° |
| 2026-05-06 11:43 | 43.73822 | -59.56330 | 32250 ft | 487 kts | 262° |
| 2026-05-06 11:44 | 43.72246 | -59.70099 | 32259 ft | 486 kts | 261° |
| 2026-05-06 11:44 | 43.71178 | -59.79340 | 32253 ft | 487 kts | 261° |
| 2026-05-06 11:45 | 43.70108 | -59.88544 | 32249 ft | 487 kts | 261° |
| 2026-05-06 11:45 | 43.69030 | -59.97740 | 32240 ft | 487 kts | 261° |
| 2026-05-06 11:46 | 43.67942 | -60.06953 | 32253 ft | 487 kts | 261° |
| 2026-05-06 11:46 | 43.66846 | -60.16170 | 32245 ft | 486 kts | 261° |
| 2026-05-06 11:47 | 43.65753 | -60.25300 | 32248 ft | 486 kts | 261° |
| 2026-05-06 11:47 | 43.64646 | -60.34478 | 32240 ft | 487 kts | 261° |
| 2026-05-06 11:48 | 43.63525 | -60.43715 | 32242 ft | 487 kts | 261° |
| 2026-05-06 11:48 | 43.62406 | -60.52862 | 32251 ft | 485 kts | 261° |
| 2026-05-06 11:49 | 43.61286 | -60.61964 | 32237 ft | 485 kts | 261° |
| 2026-05-06 11:49 | 43.60148 | -60.71143 | 32241 ft | 485 kts | 261° |
| 2026-05-06 11:50 | 43.59008 | -60.80278 | 32234 ft | 485 kts | 261° |
| 2026-05-06 11:50 | 43.57865 | -60.89375 | 32241 ft | 485 kts | 261° |
| 2026-05-06 11:51 | 43.56708 | -60.98521 | 32242 ft | 486 kts | 261° |
| 2026-05-06 11:51 | 43.55541 | -61.07688 | 32235 ft | 485 kts | 261° |
| 2026-05-06 11:52 | 43.54373 | -61.16800 | 32237 ft | 486 kts | 261° |
| 2026-05-06 11:52 | 43.53194 | -61.25937 | 32226 ft | 485 kts | 261° |
| 2026-05-06 11:53 | 43.52003 | -61.35104 | 32227 ft | 485 kts | 261° |
| 2026-05-06 11:53 | 43.50818 | -61.44168 | 32220 ft | 485 kts | 261° |
| 2026-05-06 11:54 | 43.49619 | -61.53283 | 32227 ft | 485 kts | 261° |
| 2026-05-06 11:54 | 43.48408 | -61.62431 | 32220 ft | 485 kts | 261° |
| 2026-05-06 11:55 | 43.47194 | -61.71538 | 32227 ft | 486 kts | 261° |
| 2026-05-06 11:55 | 43.45977 | -61.80616 | 32223 ft | 486 kts | 261° |
| 2026-05-06 11:56 | 43.44745 | -61.89740 | 32221 ft | 486 kts | 261° |
| 2026-05-06 11:56 | 43.43505 | -61.98871 | 32221 ft | 486 kts | 261° |
| 2026-05-06 11:57 | 43.42261 | -62.07978 | 32220 ft | 486 kts | 261° |
| 2026-05-06 11:57 | 43.41009 | -62.17084 | 32209 ft | 487 kts | 261° |
| 2026-05-06 11:58 | 43.39750 | -62.26178 | 32210 ft | 485 kts | 261° |
| 2026-05-06 11:58 | 43.38486 | -62.35264 | 32212 ft | 485 kts | 261° |
| 2026-05-06 11:59 | 43.37220 | -62.44298 | 32215 ft | 485 kts | 261° |
| 2026-05-06 11:59 | 43.35940 | -62.53383 | 32211 ft | 485 kts | 261° |
| 2026-05-06 12:00 | 43.34656 | -62.62439 | 32207 ft | 485 kts | 261° |
| 2026-05-06 12:00 | 43.33374 | -62.71434 | 32210 ft | 484 kts | 260° |
| 2026-05-06 12:01 | 43.32074 | -62.80494 | 32211 ft | 485 kts | 260° |
| 2026-05-06 12:01 | 43.30769 | -62.89541 | 32205 ft | 484 kts | 260° |
| 2026-05-06 12:02 | 43.29456 | -62.98583 | 32203 ft | 485 kts | 260° |
| 2026-05-06 12:02 | 43.28144 | -63.07572 | 32200 ft | 483 kts | 260° |
| 2026-05-06 12:03 | 43.26821 | -63.16581 | 32195 ft | 481 kts | 260° |
| 2026-05-06 12:03 | 43.25490 | -63.25594 | 32189 ft | 482 kts | 260° |
| 2026-05-06 12:04 | 43.24162 | -63.34532 | 32183 ft | 481 kts | 260° |
| 2026-05-06 12:04 | 43.22825 | -63.43486 | 32190 ft | 483 kts | 260° |
| 2026-05-06 12:05 | 43.21480 | -63.52436 | 32181 ft | 482 kts | 260° |
| 2026-05-06 12:05 | 43.20120 | -63.61436 | 32178 ft | 481 kts | 260° |
| 2026-05-06 12:06 | 43.18762 | -63.70377 | 32175 ft | 481 kts | 259° |
| 2026-05-06 12:06 | 43.17399 | -63.79296 | 32180 ft | 481 kts | 259° |
| 2026-05-06 12:07 | 43.16029 | -63.88218 | 32169 ft | 480 kts | 259° |
| 2026-05-06 12:07 | 43.14650 | -63.97143 | 32170 ft | 481 kts | 259° |
| 2026-05-06 12:08 | 43.13267 | -64.06049 | 32165 ft | 481 kts | 259° |
| 2026-05-06 12:08 | 43.11868 | -64.15012 | 32158 ft | 482 kts | 259° |
| 2026-05-06 12:09 | 43.10468 | -64.23921 | 32155 ft | 481 kts | 259° |
| 2026-05-06 12:09 | 43.09062 | -64.32829 | 32158 ft | 481 kts | 259° |
| 2026-05-06 12:10 | 43.07648 | -64.41740 | 32147 ft | 480 kts | 259° |
| 2026-05-06 12:10 | 43.06231 | -64.50623 | 32143 ft | 480 kts | 259° |
| 2026-05-06 12:11 | 43.04799 | -64.59551 | 32141 ft | 481 kts | 259° |
| 2026-05-06 12:11 | 43.03374 | -64.68385 | 32146 ft | 480 kts | 258° |
| 2026-05-06 12:12 | 43.01933 | -64.77279 | 32139 ft | 481 kts | 258° |
| 2026-05-06 12:12 | 43.00478 | -64.86204 | 32131 ft | 481 kts | 258° |
| 2026-05-06 12:13 | 42.99031 | -64.95042 | 32135 ft | 482 kts | 258° |
| 2026-05-06 12:13 | 42.97566 | -65.03941 | 32138 ft | 480 kts | 258° |
| 2026-05-06 12:14 | 42.96098 | -65.12805 | 32132 ft | 479 kts | 258° |
| 2026-05-06 12:14 | 42.94633 | -65.21614 | 32127 ft | 479 kts | 258° |
| 2026-05-06 12:15 | 42.93153 | -65.30468 | 32121 ft | 478 kts | 258° |
| 2026-05-06 12:15 | 42.91668 | -65.39303 | 32118 ft | 478 kts | 258° |
| 2026-05-06 12:16 | 42.90179 | -65.48119 | 32115 ft | 478 kts | 258° |
| 2026-05-06 12:16 | 42.88685 | -65.56922 | 32117 ft | 478 kts | 258° |
| 2026-05-06 12:17 | 42.87187 | -65.65700 | 32113 ft | 477 kts | 258° |
| 2026-05-06 12:17 | 42.85691 | -65.74426 | 32107 ft | 477 kts | 258° |
| 2026-05-06 12:18 | 42.84182 | -65.83189 | 32110 ft | 476 kts | 258° |
| 2026-05-06 12:18 | 42.82664 | -65.91949 | 32111 ft | 475 kts | 258° |
| 2026-05-06 12:19 | 42.81141 | -66.00710 | 32102 ft | 475 kts | 258° |
| 2026-05-06 12:19 | 42.79620 | -66.09407 | 32100 ft | 475 kts | 258° |
| 2026-05-06 12:20 | 42.78086 | -66.18143 | 32093 ft | 476 kts | 258° |
| 2026-05-06 12:20 | 42.76538 | -66.26910 | 32096 ft | 476 kts | 258° |
| 2026-05-06 12:21 | 42.74993 | -66.35622 | 32084 ft | 476 kts | 258° |
| 2026-05-06 12:21 | 42.73442 | -66.44326 | 32079 ft | 476 kts | 258° |
| 2026-05-06 12:22 | 42.71871 | -66.53096 | 32079 ft | 477 kts | 258° |
| 2026-05-06 12:22 | 42.70295 | -66.61856 | 32076 ft | 477 kts | 258° |
| 2026-05-06 12:23 | 42.68719 | -66.70576 | 32077 ft | 478 kts | 257° |
| 2026-05-06 12:23 | 42.67130 | -66.79324 | 32083 ft | 478 kts | 257° |
| 2026-05-06 12:24 | 42.65545 | -66.88012 | 32079 ft | 478 kts | 257° |
| 2026-05-06 12:24 | 42.63939 | -66.96771 | 32079 ft | 479 kts | 257° |
| 2026-05-06 12:25 | 42.62429 | -67.05538 | 32078 ft | 478 kts | 259° |
| 2026-05-06 12:25 | 42.61072 | -67.14352 | 32062 ft | 477 kts | 259° |
| 2026-05-06 12:26 | 42.59707 | -67.23108 | 32065 ft | 478 kts | 259° |
| 2026-05-06 12:26 | 42.58322 | -67.31905 | 32058 ft | 478 kts | 259° |
| 2026-05-06 12:27 | 42.56924 | -67.40723 | 32063 ft | 479 kts | 260° |
| 2026-05-06 12:27 | 42.55524 | -67.49488 | 32050 ft | 478 kts | 259° |
| 2026-05-06 12:28 | 42.54112 | -67.58283 | 32050 ft | 478 kts | 260° |
| 2026-05-06 12:28 | 42.52695 | -67.67056 | 32056 ft | 478 kts | 259° |
| 2026-05-06 12:29 | 42.51280 | -67.75765 | 32052 ft | 477 kts | 259° |
| 2026-05-06 12:29 | 42.49844 | -67.84569 | 32050 ft | 478 kts | 259° |
| 2026-05-06 12:30 | 42.48404 | -67.93340 | 32046 ft | 480 kts | 259° |
| 2026-05-06 12:30 | 42.46963 | -68.02077 | 32034 ft | 478 kts | 259° |
| 2026-05-06 12:31 | 42.45505 | -68.10874 | 32037 ft | 480 kts | 259° |
| 2026-05-06 12:31 | 42.44040 | -68.19666 | 32028 ft | 479 kts | 259° |
| 2026-05-06 12:32 | 42.42578 | -68.28399 | 32025 ft | 477 kts | 259° |
| 2026-05-06 12:32 | 42.41115 | -68.37090 | 32022 ft | 477 kts | 259° |
| 2026-05-06 12:33 | 42.39636 | -68.45838 | 32025 ft | 477 kts | 259° |
| 2026-05-06 12:33 | 42.38160 | -68.54523 | 32018 ft | 477 kts | 259° |
| 2026-05-06 12:34 | 42.36671 | -68.63236 | 32021 ft | 477 kts | 259° |
| 2026-05-06 12:34 | 42.35176 | -68.71948 | 32011 ft | 475 kts | 258° |
| 2026-05-06 12:35 | 42.33688 | -68.80573 | 32007 ft | 476 kts | 258° |
| 2026-05-06 12:35 | 42.32188 | -68.89227 | 32001 ft | 474 kts | 258° |
| 2026-05-06 12:36 | 42.30680 | -68.97889 | 32010 ft | 476 kts | 258° |
| 2026-05-06 12:36 | 42.29168 | -69.06534 | 32013 ft | 475 kts | 258° |
| 2026-05-06 12:37 | 42.27647 | -69.15185 | 31995 ft | 473 kts | 258° |
| 2026-05-06 12:37 | 42.26123 | -69.23811 | 31992 ft | 474 kts | 258° |
| 2026-05-06 12:38 | 42.24600 | -69.32393 | 31995 ft | 473 kts | 258° |
| 2026-05-06 12:38 | 42.23063 | -69.41011 | 31992 ft | 473 kts | 258° |
| 2026-05-06 12:39 | 42.21526 | -69.49588 | 31983 ft | 472 kts | 258° |
| 2026-05-06 12:39 | 42.19984 | -69.58157 | 31968 ft | 471 kts | 258° |
| 2026-05-06 12:40 | 42.18442 | -69.66685 | 31966 ft | 470 kts | 257° |
| 2026-05-06 12:40 | 42.16885 | -69.75260 | 31978 ft | 470 kts | 257° |
| 2026-05-06 12:41 | 42.15341 | -69.83720 | 31963 ft | 469 kts | 257° |
| 2026-05-06 12:41 | 42.13780 | -69.92233 | 31970 ft | 468 kts | 257° |
| 2026-05-06 12:42 | 42.12214 | -70.00742 | 31973 ft | 469 kts | 257° |
| 2026-05-06 12:42 | 42.10642 | -70.09237 | 31972 ft | 467 kts | 257° |
| 2026-05-06 12:43 | 42.09075 | -70.17675 | 31966 ft | 468 kts | 257° |
| 2026-05-06 12:43 | 42.07496 | -70.26138 | 31964 ft | 466 kts | 257° |
| 2026-05-06 12:44 | 42.05911 | -70.34589 | 31971 ft | 466 kts | 257° |
| 2026-05-06 12:44 | 42.04195 | -70.42994 | 31946 ft | 468 kts | 251° |
| 2026-05-06 12:45 | 42.01734 | -70.51077 | 31951 ft | 467 kts | 249° |
| 2026-05-06 12:46 | 41.97972 | -70.63101 | 31957 ft | 467 kts | 249° |
| 2026-05-06 12:46 | 41.95421 | -70.71200 | 31951 ft | 468 kts | 248° |
| 2026-05-06 12:47 | 41.92891 | -70.79198 | 31945 ft | 467 kts | 248° |
| 2026-05-06 12:47 | 41.90350 | -70.87206 | 31909 ft | 467 kts | 248° |
| 2026-05-06 12:47 | 41.89069 | -70.91233 | 31643 ft | 466 kts | 248° |
| 2026-05-06 12:48 | 41.87806 | -70.95200 | 31366 ft | 462 kts | 248° |
| 2026-05-06 12:48 | 41.86550 | -70.99134 | 31086 ft | 459 kts | 248° |
| 2026-05-06 12:48 | 41.85294 | -71.03068 | 30815 ft | 457 kts | 248° |
| 2026-05-06 12:48 | 41.84052 | -71.06950 | 30546 ft | 456 kts | 248° |
| 2026-05-06 12:49 | 41.82796 | -71.10870 | 30273 ft | 454 kts | 248° |
| 2026-05-06 12:49 | 41.81559 | -71.14722 | 30006 ft | 451 kts | 248° |
| 2026-05-06 12:49 | 41.80309 | -71.18616 | 29952 ft | 457 kts | 248° |
| 2026-05-06 12:50 | 41.77789 | -71.26444 | 29945 ft | 460 kts | 248° |
| 2026-05-06 12:50 | 41.75251 | -71.34300 | 29954 ft | 461 kts | 248° |
| 2026-05-06 12:51 | 41.72265 | -71.41921 | 29943 ft | 465 kts | 237° |
| 2026-05-06 12:51 | 41.67772 | -71.48151 | 29508 ft | 472 kts | 224° |
| 2026-05-06 12:51 | 41.65284 | -71.50955 | 29019 ft | 469 kts | 224° |
| 2026-05-06 12:52 | 41.62756 | -71.53785 | 28532 ft | 475 kts | 224° |
| 2026-05-06 12:52 | 41.60217 | -71.56621 | 28045 ft | 477 kts | 224° |
| 2026-05-06 12:52 | 41.57671 | -71.59460 | 27559 ft | 477 kts | 224° |
| 2026-05-06 12:52 | 41.55147 | -71.62271 | 27103 ft | 479 kts | 223° |
| 2026-05-06 12:53 | 41.52575 | -71.65131 | 26645 ft | 479 kts | 223° |
| 2026-05-06 12:53 | 41.49997 | -71.67995 | 26222 ft | 478 kts | 223° |
| 2026-05-06 12:53 | 41.47472 | -71.70795 | 25808 ft | 470 kts | 222° |
| 2026-05-06 12:53 | 41.44969 | -71.73566 | 25398 ft | 462 kts | 222° |
| 2026-05-06 12:54 | 41.42521 | -71.76274 | 24994 ft | 459 kts | 222° |
| 2026-05-06 12:54 | 41.40084 | -71.78969 | 24589 ft | 457 kts | 222° |
| 2026-05-06 12:54 | 41.37662 | -71.81644 | 24214 ft | 455 kts | 222° |
| 2026-05-06 12:54 | 41.35238 | -71.84319 | 23970 ft | 450 kts | 222° |
| 2026-05-06 12:55 | 41.32797 | -71.87009 | 23805 ft | 454 kts | 222° |
| 2026-05-06 12:55 | 41.30385 | -71.89666 | 23416 ft | 449 kts | 221° |
| 2026-05-06 12:55 | 41.28016 | -71.92271 | 23026 ft | 442 kts | 221° |
| 2026-05-06 12:55 | 41.25668 | -71.94850 | 22641 ft | 437 kts | 222° |
| 2026-05-06 12:56 | 41.23320 | -71.97428 | 22253 ft | 434 kts | 222° |
| 2026-05-06 12:56 | 41.21009 | -71.99963 | 21865 ft | 430 kts | 222° |
| 2026-05-06 12:56 | 41.18692 | -72.02502 | 21471 ft | 430 kts | 222° |
| 2026-05-06 12:56 | 41.16415 | -72.04995 | 21084 ft | 426 kts | 222° |
| 2026-05-06 12:57 | 41.14140 | -72.07482 | 20690 ft | 422 kts | 222° |
| 2026-05-06 12:57 | 41.12030 | -72.10150 | 20306 ft | 419 kts | 230° |
| 2026-05-06 12:57 | 41.10296 | -72.13203 | 19918 ft | 415 kts | 238° |
| 2026-05-06 12:57 | 41.08961 | -72.16585 | 19522 ft | 412 kts | 247° |
| 2026-05-06 12:58 | 41.07993 | -72.20129 | 19136 ft | 410 kts | 251° |
| 2026-05-06 12:58 | 41.07092 | -72.23700 | 18740 ft | 409 kts | 251° |
| 2026-05-06 12:58 | 41.06198 | -72.27265 | 18347 ft | 406 kts | 251° |
| 2026-05-06 12:58 | 41.05312 | -72.30805 | 17953 ft | 404 kts | 251° |
| 2026-05-06 12:59 | 41.04436 | -72.34307 | 17574 ft | 400 kts | 251° |
| 2026-05-06 12:59 | 41.03566 | -72.37787 | 17180 ft | 397 kts | 251° |
| 2026-05-06 12:59 | 41.02707 | -72.41226 | 16789 ft | 393 kts | 251° |
| 2026-05-06 12:59 | 41.01852 | -72.44640 | 16404 ft | 389 kts | 250° |
| 2026-05-06 13:00 | 41.01003 | -72.48029 | 16009 ft | 387 kts | 250° |
| 2026-05-06 13:00 | 41.00163 | -72.51381 | 15625 ft | 384 kts | 250° |
| 2026-05-06 13:00 | 40.99320 | -72.54738 | 15222 ft | 382 kts | 250° |
| 2026-05-06 13:00 | 40.98492 | -72.58030 | 14819 ft | 378 kts | 250° |
| 2026-05-06 13:01 | 40.97660 | -72.61337 | 14407 ft | 376 kts | 249° |
| 2026-05-06 13:01 | 40.96840 | -72.64588 | 14008 ft | 373 kts | 250° |
| 2026-05-06 13:01 | 40.96030 | -72.67800 | 13611 ft | 368 kts | 249° |
| 2026-05-06 13:01 | 40.95221 | -72.70999 | 13211 ft | 367 kts | 249° |
| 2026-05-06 13:02 | 40.94417 | -72.74176 | 12819 ft | 366 kts | 248° |
| 2026-05-06 13:02 | 40.93417 | -72.77251 | 12419 ft | 360 kts | 239° |
| 2026-05-06 13:02 | 40.92037 | -72.79961 | 12063 ft | 355 kts | 230° |
| 2026-05-06 13:02 | 40.90326 | -72.82272 | 11650 ft | 345 kts | 220° |
| 2026-05-06 13:03 | 40.88491 | -72.84128 | 11338 ft | 323 kts | 218° |
| 2026-05-06 13:03 | 40.86725 | -72.85857 | 11034 ft | 311 kts | 217° |
| 2026-05-06 13:03 | 40.85018 | -72.87511 | 10727 ft | 296 kts | 217° |
| 2026-05-06 13:03 | 40.83397 | -72.89069 | 10420 ft | 281 kts | 217° |
| 2026-05-06 13:04 | 40.81850 | -72.90553 | 10110 ft | 267 kts | 217° |
| 2026-05-06 13:04 | 40.80380 | -72.91962 | 9867 ft | 258 kts | 217° |
| 2026-05-06 13:04 | 40.78946 | -72.93334 | 9550 ft | 255 kts | 217° |
| 2026-05-06 13:04 | 40.77517 | -72.94701 | 9239 ft | 252 kts | 217° |
| 2026-05-06 13:05 | 40.76111 | -72.96046 | 8921 ft | 249 kts | 217° |
| 2026-05-06 13:05 | 40.74694 | -72.97398 | 8604 ft | 247 kts | 217° |
| 2026-05-06 13:05 | 40.73317 | -72.98714 | 8289 ft | 245 kts | 217° |
| 2026-05-06 13:05 | 40.71938 | -73.00030 | 8032 ft | 247 kts | 217° |
| 2026-05-06 13:06 | 40.70511 | -73.01408 | 7990 ft | 253 kts | 220° |
| 2026-05-06 13:06 | 40.69353 | -73.03160 | 7997 ft | 256 kts | 238° |
| 2026-05-06 13:06 | 40.68728 | -73.05353 | 7995 ft | 261 kts | 255° |
| 2026-05-06 13:06 | 40.68605 | -73.07781 | 7998 ft | 266 kts | 264° |
| 2026-05-06 13:07 | 40.68594 | -73.10227 | 7993 ft | 269 kts | 264° |
| 2026-05-06 13:07 | 40.68603 | -73.12651 | 7990 ft | 267 kts | 265° |
| 2026-05-06 13:07 | 40.68616 | -73.15121 | 7989 ft | 268 kts | 265° |
| 2026-05-06 13:07 | 40.68628 | -73.17561 | 7989 ft | 268 kts | 265° |
| 2026-05-06 13:08 | 40.68640 | -73.20024 | 7988 ft | 268 kts | 265° |
| 2026-05-06 13:08 | 40.68651 | -73.22459 | 7986 ft | 267 kts | 265° |
| 2026-05-06 13:08 | 40.68662 | -73.24912 | 7983 ft | 268 kts | 265° |
| 2026-05-06 13:08 | 40.68672 | -73.27387 | 7798 ft | 267 kts | 265° |
| 2026-05-06 13:09 | 40.68683 | -73.29793 | 7558 ft | 262 kts | 265° |
| 2026-05-06 13:09 | 40.68693 | -73.32179 | 7311 ft | 257 kts | 265° |
| 2026-05-06 13:09 | 40.68809 | -73.34489 | 7061 ft | 258 kts | 278° |
| 2026-05-06 13:09 | 40.69437 | -73.36731 | 6823 ft | 262 kts | 287° |
| 2026-05-06 13:10 | 40.70183 | -73.38927 | 6595 ft | 261 kts | 288° |
| 2026-05-06 13:10 | 40.70937 | -73.41125 | 6337 ft | 259 kts | 288° |
| 2026-05-06 13:10 | 40.71672 | -73.43276 | 6089 ft | 256 kts | 287° |
| 2026-05-06 13:10 | 40.72401 | -73.45380 | 5840 ft | 256 kts | 287° |
| 2026-05-06 13:11 | 40.73148 | -73.47532 | 5585 ft | 253 kts | 287° |
| 2026-05-06 13:11 | 40.73880 | -73.49625 | 5334 ft | 250 kts | 288° |
| 2026-05-06 13:11 | 40.74606 | -73.51687 | 5086 ft | 246 kts | 288° |
| 2026-05-06 13:11 | 40.75322 | -73.53713 | 4819 ft | 244 kts | 288° |
| 2026-05-06 13:12 | 40.76038 | -73.55729 | 4519 ft | 242 kts | 288° |
| 2026-05-06 13:12 | 40.76752 | -73.57755 | 4217 ft | 243 kts | 288° |
| 2026-05-06 13:12 | 40.77454 | -73.59752 | 3996 ft | 235 kts | 286° |
| 2026-05-06 13:12 | 40.77743 | -73.61735 | 3798 ft | 213 kts | 260° |
| 2026-05-06 13:13 | 40.77269 | -73.63503 | 3419 ft | 200 kts | 241° |
| 2026-05-06 13:13 | 40.76562 | -73.65052 | 3042 ft | 195 kts | 235° |
| 2026-05-06 13:13 | 40.75853 | -73.66534 | 2679 ft | 191 kts | 230° |
| 2026-05-06 13:13 | 40.74813 | -73.67554 | 2305 ft | 187 kts | 210° |
| 2026-05-06 13:14 | 40.73657 | -73.68365 | 1946 ft | 184 kts | 211° |
| 2026-05-06 13:14 | 40.72601 | -73.69190 | 1790 ft | 172 kts | 212° |
| 2026-05-06 13:14 | 40.71560 | -73.70007 | 1610 ft | 171 kts | 212° |
| 2026-05-06 13:14 | 40.70591 | -73.70760 | 1409 ft | 152 kts | 211° |
| 2026-05-06 13:15 | 40.69699 | -73.71456 | 1222 ft | 148 kts | 211° |
| 2026-05-06 13:15 | 40.68847 | -73.72120 | 1028 ft | 140 kts | 211° |
| 2026-05-06 13:15 | 40.68022 | -73.72768 | 843 ft | 134 kts | 210° |
| 2026-05-06 13:15 | 40.67214 | -73.73373 | 691 ft | 133 kts | 210° |
| 2026-05-06 13:16 | 40.66426 | -73.73981 | 463 ft | 135 kts | 211° |
| 2026-05-06 13:16 | 40.65618 | -73.74619 | 305 ft | 131 kts | 210° |
| 2026-05-06 13:16 | 40.64831 | -73.75252 | 114 ft | 131 kts | 210° |
| 2026-05-06 13:16 | 40.64055 | -73.75857 | 22 ft | 116 kts | 210° |
| 2026-05-06 13:17 | 40.63466 | -73.76313 | 22 ft | 81 kts | 211° |
| 2026-05-06 13:17 | 40.63114 | -73.76588 | 18 ft | 39 kts | 214° |
| 2026-05-06 13:17 | 40.62968 | -73.76801 | 18 ft | 28 kts | 238° |
| 2026-05-06 13:17 | 40.62934 | -73.76952 | 18 ft | 8 kts | 285° |
| 2026-05-06 13:18 | 40.62965 | -73.77046 | 18 ft | 15 kts | 296° |
| 2026-05-06 13:18 | 40.63032 | -73.77194 | 18 ft | 15 kts | 300° |
| 2026-05-06 13:18 | 40.63088 | -73.77316 | 18 ft | 14 kts | 300° |
| 2026-05-06 13:18 | 40.63147 | -73.77446 | 18 ft | 17 kts | 300° |
| 2026-05-06 13:19 | 40.63206 | -73.77580 | 18 ft | 15 kts | 300° |
| 2026-05-06 13:19 | 40.63260 | -73.77697 | 18 ft | 14 kts | 301° |
| 2026-05-06 13:19 | 40.63314 | -73.77814 | 18 ft | 8 kts | 314° |
| 2026-05-06 13:19 | 40.63380 | -73.77808 | 18 ft | 14 kts | 31° |
| 2026-05-06 13:20 | 40.63473 | -73.77734 | 20 ft | 15 kts | 32° |
| 2026-05-06 13:20 | 40.63562 | -73.77663 | 22 ft | 15 kts | 30° |
| 2026-05-06 13:20 | 40.63665 | -73.77582 | 22 ft | 17 kts | 31° |
| 2026-05-06 13:20 | 40.63759 | -73.77509 | 22 ft | 13 kts | 31° |
| 2026-05-06 13:21 | 40.63865 | -73.77427 | 22 ft | 17 kts | 31° |
| 2026-05-06 13:21 | 40.63967 | -73.77345 | 22 ft | 16 kts | 31° |
| 2026-05-06 13:21 | 40.64009 | -73.77338 | 22 ft | 8 kts | 327° |
| 2026-05-06 13:21 | 40.64057 | -73.77407 | 22 ft | 16 kts | 308° |
| 2026-05-06 13:22 | 40.64124 | -73.77502 | 22 ft | 12 kts | 326° |
| 2026-05-06 13:22 | 40.64193 | -73.77560 | 22 ft | 11 kts | 329° |
| 2026-05-06 13:22 | 40.64240 | -73.77609 | 22 ft | 5 kts | 280° |
| 2026-05-06 13:22 | 40.64237 | -73.77638 | 22 ft | 3 kts | 249° |
| 2026-05-06 13:23 | 40.64229 | -73.77665 | 22 ft | 3 kts | 251° |
| 2026-05-06 13:23 | 40.64228 | -73.77670 | 22 ft | 0 kts | 251° |